Wetterdaten: Dienstag, 21.03.2023
Datum Zeit Temp. Aussen Temp. o. S. Temp +5cm Feuchte Auss Luftdruck Regen Sonnenschein Regendauer Solar Windben Empfang
21.03.2023 00:00 10,2 C 9,4 C 6,1 C 82 % 1018,2 hPa 0,0 l/m 0 min 0 min 0 W/m 3,2 km/h (1 Bft) 95,74 %
21.03.2023 00:02 10,2 C 9,4 C 5,6 C 82 % 1018,2 hPa 0,0 l/m 0 min 0 min 0 W/m 3,2 km/h (1 Bft) 100,00 %
21.03.2023 00:04 10,2 C 9,4 C 5,6 C 82 % 1018,2 hPa 0,0 l/m 0 min 0 min 0 W/m 6,4 km/h (2 Bft) 97,87 %
21.03.2023 00:07 10,2 C 9,4 C 5,6 C 82 % 1018,2 hPa 0,0 l/m 0 min 0 min 0 W/m 9,7 km/h (2 Bft) 97,62 %
21.03.2023 00:08 10,2 C 9,4 C 5,6 C 82 % 1018,2 hPa 0,0 l/m 0 min 0 min 0 W/m 6,4 km/h (2 Bft) 100,00 %
21.03.2023 00:10 10,2 C 9,4 C 5,6 C 81 % 1018,1 hPa 0,0 l/m 0 min 0 min 0 W/m 6,4 km/h (2 Bft) 97,87 %
21.03.2023 00:12 10,2 C 9,4 C 5,6 C 81 % 1018,2 hPa 0,0 l/m 0 min 0 min 0 W/m 9,7 km/h (2 Bft) 97,83 %
21.03.2023 00:14 10,2 C 9,4 C 5,6 C 81 % 1018,1 hPa 0,0 l/m 0 min 0 min 0 W/m 9,7 km/h (2 Bft) 97,87 %
21.03.2023 00:16 10,2 C 9,4 C 5,6 C 81 % 1018,1 hPa 0,0 l/m 0 min 0 min 0 W/m 6,4 km/h (2 Bft) 97,87 %
21.03.2023 00:18 10,2 C 9,4 C 5,6 C 81 % 1018,1 hPa 0,0 l/m 0 min 0 min 0 W/m 9,7 km/h (2 Bft) 97,87 %
21.03.2023 00:20 10,2 C 9,4 C 5,6 C 81 % 1018,0 hPa 0,0 l/m 0 min 0 min 0 W/m 3,2 km/h (1 Bft) 100,00 %
21.03.2023 00:22 10,2 C 9,4 C 5,6 C 81 % 1018,0 hPa 0,0 l/m 0 min 0 min 0 W/m 6,4 km/h (2 Bft) 100,00 %
21.03.2023 00:24 10,2 C 9,4 C 5,6 C 81 % 1018,1 hPa 0,0 l/m 0 min 0 min 0 W/m 0,0 km/h (0 Bft) 97,87 %
21.03.2023 00:26 10,2 C 9,4 C 5,6 C 81 % 1018,0 hPa 0,0 l/m 0 min 0 min 0 W/m 6,4 km/h (2 Bft) 100,00 %
21.03.2023 00:28 10,2 C 9,4 C 5,6 C 81 % 1018,0 hPa 0,0 l/m 0 min 0 min 0 W/m 6,4 km/h (2 Bft) 97,87 %
21.03.2023 00:30 10,2 C 9,4 C 5,6 C 81 % 1018,0 hPa 0,0 l/m 0 min 0 min 0 W/m 3,2 km/h (1 Bft) 100,00 %
21.03.2023 00:32 10,2 C 9,4 C 5,6 C 81 % 1018,0 hPa 0,0 l/m 0 min 0 min 0 W/m 6,4 km/h (2 Bft) 100,00 %
21.03.2023 00:34 10,2 C 9,4 C 5,6 C 81 % 1018,1 hPa 0,0 l/m 0 min 0 min 0 W/m 3,2 km/h (1 Bft) 100,00 %
21.03.2023 00:36 10,2 C 9,4 C 5,6 C 82 % 1018,0 hPa 0,0 l/m 0 min 0 min 0 W/m 6,4 km/h (2 Bft) 100,00 %
21.03.2023 00:38 10,2 C 9,4 C 5,6 C 82 % 1018,0 hPa 0,0 l/m 0 min 0 min 0 W/m 6,4 km/h (2 Bft) 100,00 %
21.03.2023 00:40 10,1 C 9,4 C 5,6 C 82 % 1018,0 hPa 0,0 l/m 0 min 0 min 0 W/m 3,2 km/h (1 Bft) 100,00 %
21.03.2023 00:42 10,1 C 9,4 C 5,6 C 82 % 1018,0 hPa 0,0 l/m 0 min 0 min 0 W/m 3,2 km/h (1 Bft) 93,62 %
21.03.2023 00:44 10,1 C 9,4 C 5,6 C 82 % 1017,9 hPa 0,0 l/m 0 min 0 min 0 W/m 3,2 km/h (1 Bft) 97,87 %
21.03.2023 00:46 10,1 C 9,4 C 5,6 C 82 % 1017,9 hPa 0,0 l/m 0 min 0 min 0 W/m 3,2 km/h (1 Bft) 97,83 %
21.03.2023 00:48 10,1 C 9,4 C 5,6 C 82 % 1017,9 hPa 0,0 l/m 0 min 0 min 0 W/m 3,2 km/h (1 Bft) 97,87 %
21.03.2023 00:50 10,1 C 9,4 C 5,6 C 82 % 1017,9 hPa 0,0 l/m 0 min 0 min 0 W/m 3,2 km/h (1 Bft) 96,00 %
21.03.2023 00:52 10,1 C 9,4 C 5,6 C 82 % 1017,9 hPa 0,0 l/m 0 min 0 min 0 W/m 6,4 km/h (2 Bft) 97,83 %
21.03.2023 00:54 10,1 C 9,4 C 5,6 C 82 % 1017,9 hPa 0,0 l/m 0 min 0 min 0 W/m 12,9 km/h (3 Bft) 97,87 %
21.03.2023 00:56 10,1 C 9,4 C 5,6 C 82 % 1017,8 hPa 0,0 l/m 0 min 0 min 0 W/m 3,2 km/h (1 Bft) 97,87 %
21.03.2023 00:58 10,1 C 8,9 C 5,6 C 82 % 1017,8 hPa 0,0 l/m 0 min 0 min 0 W/m 6,4 km/h (2 Bft) 95,74 %
21.03.2023 01:00 10,0 C 8,9 C 5,6 C 82 % 1017,7 hPa 0,0 l/m 0 min 0 min 0 W/m 6,4 km/h (2 Bft) 97,87 %
21.03.2023 01:02 10,0 C 8,9 C 5,6 C 82 % 1017,7 hPa 0,0 l/m 0 min 0 min 0 W/m 6,4 km/h (2 Bft) 97,87 %
21.03.2023 01:04 10,0 C 8,9 C 5,6 C 82 % 1017,7 hPa 0,0 l/m 0 min 0 min 0 W/m 3,2 km/h (1 Bft) 97,87 %
21.03.2023 01:06 10,0 C 8,9 C 5,6 C 83 % 1017,7 hPa 0,0 l/m 0 min 0 min 0 W/m 3,2 km/h (1 Bft) 95,74 %
21.03.2023 01:08 9,9 C 8,9 C 5,6 C 83 % 1017,7 hPa 0,0 l/m 0 min 0 min 0 W/m 3,2 km/h (1 Bft) 97,87 %
21.03.2023 01:10 9,9 C 8,9 C 5,6 C 83 % 1017,7 hPa 0,0 l/m 0 min 0 min 0 W/m 3,2 km/h (1 Bft) 97,87 %
21.03.2023 01:12 9,9 C 8,9 C 5,6 C 83 % 1017,7 hPa 0,0 l/m 0 min 0 min 0 W/m 0,0 km/h (0 Bft) 97,87 %
21.03.2023 01:14 9,9 C 8,9 C 5,6 C 83 % 1017,6 hPa 0,0 l/m 0 min 0 min 0 W/m 6,4 km/h (2 Bft) 97,87 %
21.03.2023 01:16 9,9 C 8,9 C 5,6 C 83 % 1017,6 hPa 0,0 l/m 0 min 0 min 0 W/m 3,2 km/h (1 Bft) 95,74 %
21.03.2023 01:18 9,9 C 8,9 C 5,6 C 83 % 1017,6 hPa 0,0 l/m 0 min 0 min 0 W/m 6,4 km/h (2 Bft) 97,87 %
21.03.2023 01:20 9,9 C 8,9 C 5,6 C 83 % 1017,6 hPa 0,0 l/m 0 min 0 min 0 W/m 3,2 km/h (1 Bft) 97,62 %
21.03.2023 01:22 9,9 C 8,9 C 5,6 C 83 % 1017,6 hPa 0,0 l/m 0 min 0 min 0 W/m 6,4 km/h (2 Bft) 97,87 %
21.03.2023 01:24 9,9 C 8,9 C 5,6 C 83 % 1017,6 hPa 0,0 l/m 0 min 0 min 0 W/m 6,4 km/h (2 Bft) 95,74 %
21.03.2023 01:26 9,9 C 8,9 C 5,6 C 83 % 1017,6 hPa 0,0 l/m 0 min 0 min 0 W/m 3,2 km/h (1 Bft) 97,83 %
21.03.2023 01:28 9,8 C 8,9 C 5,6 C 83 % 1017,6 hPa 0,0 l/m 0 min 0 min 0 W/m 3,2 km/h (1 Bft) 97,87 %
21.03.2023 01:30 9,8 C 8,9 C 5,6 C 83 % 1017,5 hPa 0,0 l/m 0 min 0 min 0 W/m 3,2 km/h (1 Bft) 97,92 %
21.03.2023 01:32 9,8 C 8,9 C 5,6 C 83 % 1017,5 hPa 0,0 l/m 0 min 0 min 0 W/m 6,4 km/h (2 Bft) 97,87 %
21.03.2023 01:34 9,8 C 8,9 C 5,6 C 83 % 1017,5 hPa 0,0 l/m 0 min 0 min 0 W/m 3,2 km/h (1 Bft) 97,96 %
21.03.2023 01:36 9,8 C 8,9 C 5,6 C 83 % 1017,5 hPa 0,0 l/m 0 min 0 min 0 W/m 3,2 km/h (1 Bft) 97,92 %
21.03.2023 01:38 9,8 C 8,9 C 5,6 C 83 % 1017,5 hPa 0,0 l/m 0 min 0 min 0 W/m 3,2 km/h (1 Bft) 97,83 %
21.03.2023 01:40 9,8 C 8,9 C 5,6 C 83 % 1017,5 hPa 0,0 l/m 0 min 0 min 0 W/m 6,4 km/h (2 Bft) 95,74 %
21.03.2023 01:42 9,8 C 8,9 C 5,6 C 83 % 1017,5 hPa 0,0 l/m 0 min 0 min 0 W/m 6,4 km/h (2 Bft) 95,74 %
21.03.2023 01:44 9,8 C 8,9 C 5,6 C 83 % 1017,5 hPa 0,0 l/m 0 min 0 min 0 W/m 3,2 km/h (1 Bft) 93,75 %
21.03.2023 01:46 9,8 C 8,9 C 5,6 C 83 % 1017,5 hPa 0,0 l/m 0 min 0 min 0 W/m 6,4 km/h (2 Bft) 95,74 %
21.03.2023 01:48 9,8 C 8,9 C 5,6 C 83 % 1017,5 hPa 0,0 l/m 0 min 0 min 0 W/m 6,4 km/h (2 Bft) 95,65 %
21.03.2023 01:50 9,8 C 8,9 C 5,6 C 83 % 1017,4 hPa 0,0 l/m 0 min 0 min 0 W/m 3,2 km/h (1 Bft) 93,62 %
21.03.2023 01:52 9,8 C 8,9 C 5,6 C 83 % 1017,4 hPa 0,0 l/m 0 min 0 min 0 W/m 3,2 km/h (1 Bft) 95,74 %
21.03.2023 01:54 9,8 C 8,9 C 5,6 C 84 % 1017,3 hPa 0,0 l/m 0 min 0 min 0 W/m 6,4 km/h (2 Bft) 95,74 %
21.03.2023 01:56 9,8 C 8,9 C 5,6 C 84 % 1017,4 hPa 0,0 l/m 0 min 0 min 0 W/m 3,2 km/h (1 Bft) 95,74 %
21.03.2023 01:58 9,8 C 8,9 C 5,6 C 84 % 1017,3 hPa 0,0 l/m 0 min 0 min 0 W/m 3,2 km/h (1 Bft) 95,74 %
21.03.2023 02:00 9,8 C 8,9 C 5,6 C 84 % 1017,3 hPa 0,0 l/m 0 min 0 min 0 W/m 6,4 km/h (2 Bft) 95,65 %
21.03.2023 02:02 9,8 C 8,9 C 5,6 C 84 % 1017,3 hPa 0,0 l/m 0 min 0 min 0 W/m 6,4 km/h (2 Bft) 93,62 %
21.03.2023 02:04 9,8 C 8,9 C 5,6 C 84 % 1017,3 hPa 0,0 l/m 0 min 0 min 0 W/m 9,7 km/h (2 Bft) 95,83 %
21.03.2023 02:06 9,8 C 8,9 C 5,6 C 84 % 1017,2 hPa 0,0 l/m 0 min 0 min 0 W/m 6,4 km/h (2 Bft) 93,62 %
21.03.2023 02:08 9,8 C 8,9 C 5,6 C 84 % 1017,3 hPa 0,0 l/m 0 min 0 min 0 W/m 6,4 km/h (2 Bft) 93,62 %
21.03.2023 02:10 9,8 C 8,9 C 5,6 C 84 % 1017,2 hPa 0,0 l/m 0 min 0 min 0 W/m 6,4 km/h (2 Bft) 94,29 %
21.03.2023 02:14 9,8 C 8,9 C 5,6 C 84 % 1017,2 hPa 0,0 l/m 0 min 0 min 0 W/m 6,4 km/h (2 Bft) 100,00 %
21.03.2023 02:19 9,8 C 9,4 C 5,6 C 84 % 1017,2 hPa 0,0 l/m 0 min 0 min 0 W/m 22,5 km/h (4 Bft) 100,00 %
21.03.2023 02:20 9,8 C 9,4 C 5,6 C 84 % 1017,2 hPa 0,0 l/m 0 min 0 min 0 W/m 12,9 km/h (3 Bft) 100,00 %
21.03.2023 02:22 9,8 C 9,4 C 5,6 C 84 % 1017,0 hPa 0,0 l/m 0 min 0 min 0 W/m 12,9 km/h (3 Bft) 97,87 %
21.03.2023 02:24 9,9 C 9,4 C 5,6 C 84 % 1017,1 hPa 0,0 l/m 0 min 0 min 0 W/m 19,3 km/h (3 Bft) 97,83 %
21.03.2023 02:26 9,9 C 9,4 C 5,6 C 84 % 1017,1 hPa 0,0 l/m 0 min 0 min 0 W/m 9,7 km/h (2 Bft) 100,00 %
21.03.2023 02:28 9,9 C 9,4 C 5,6 C 84 % 1017,0 hPa 0,0 l/m 0 min 0 min 0 W/m 6,4 km/h (2 Bft) 95,74 %
21.03.2023 02:30 9,9 C 9,4 C 5,6 C 84 % 1017,0 hPa 0,0 l/m 0 min 0 min 0 W/m 9,7 km/h (2 Bft) 100,00 %
21.03.2023 02:32 9,9 C 9,4 C 5,6 C 85 % 1017,0 hPa 0,0 l/m 0 min 0 min 0 W/m 6,4 km/h (2 Bft) 100,00 %
21.03.2023 02:34 9,9 C 8,9 C 5,6 C 85 % 1017,1 hPa 0,0 l/m 0 min 0 min 0 W/m 9,7 km/h (2 Bft) 100,00 %
21.03.2023 02:36 9,9 C 8,9 C 5,6 C 85 % 1017,1 hPa 0,0 l/m 0 min 0 min 0 W/m 3,2 km/h (1 Bft) 100,00 %
21.03.2023 02:38 9,9 C 8,9 C 5,6 C 85 % 1017,0 hPa 0,0 l/m 0 min 0 min 0 W/m 12,9 km/h (3 Bft) 97,87 %
21.03.2023 02:40 9,9 C 8,9 C 5,6 C 85 % 1017,1 hPa 0,0 l/m 0 min 0 min 0 W/m 6,4 km/h (2 Bft) 100,00 %
21.03.2023 02:42 9,9 C 8,9 C 5,6 C 85 % 1017,0 hPa 0,0 l/m 0 min 0 min 0 W/m 6,4 km/h (2 Bft) 100,00 %
21.03.2023 02:44 9,9 C 8,9 C 5,6 C 85 % 1017,0 hPa 0,0 l/m 0 min 0 min 0 W/m 6,4 km/h (2 Bft) 100,00 %
21.03.2023 02:46 9,9 C 8,9 C 5,6 C 85 % 1016,9 hPa 0,0 l/m 0 min 0 min 0 W/m 6,4 km/h (2 Bft) 100,00 %
21.03.2023 02:48 9,9 C 8,9 C 5,6 C 85 % 1016,9 hPa 0,0 l/m 0 min 0 min 0 W/m 12,9 km/h (3 Bft) 100,00 %
21.03.2023 02:50 9,9 C 8,9 C 5,6 C 85 % 1016,9 hPa 0,0 l/m 0 min 0 min 0 W/m 6,4 km/h (2 Bft) 100,00 %
21.03.2023 02:52 9,9 C 8,9 C 5,6 C 85 % 1016,9 hPa 0,0 l/m 0 min 0 min 0 W/m 6,4 km/h (2 Bft) 100,00 %
21.03.2023 02:54 9,9 C 8,9 C 5,6 C 85 % 1016,9 hPa 0,0 l/m 0 min 0 min 0 W/m 3,2 km/h (1 Bft) 100,00 %
21.03.2023 02:56 9,8 C 8,9 C 5,6 C 86 % 1016,9 hPa 0,0 l/m 0 min 0 min 0 W/m 6,4 km/h (2 Bft) 100,00 %
21.03.2023 02:58 9,8 C 8,9 C 5,6 C 86 % 1016,8 hPa 0,0 l/m 0 min 0 min 0 W/m 6,4 km/h (2 Bft) 100,00 %
21.03.2023 03:00 9,8 C 8,9 C 5,6 C 85 % 1016,8 hPa 0,0 l/m 0 min 0 min 0 W/m 3,2 km/h (1 Bft) 100,00 %
21.03.2023 03:02 9,8 C 8,9 C 5,6 C 85 % 1016,8 hPa 0,0 l/m 0 min 0 min 0 W/m 6,4 km/h (2 Bft) 100,00 %
21.03.2023 03:04 9,8 C 8,9 C 5,6 C 86 % 1016,7 hPa 0,0 l/m 0 min 0 min 0 W/m 3,2 km/h (1 Bft) 100,00 %
21.03.2023 03:06 9,8 C 8,9 C 5,6 C 86 % 1016,7 hPa 0,0 l/m 0 min 0 min 0 W/m 3,2 km/h (1 Bft) 100,00 %
21.03.2023 03:08 9,8 C 8,9 C 5,6 C 86 % 1016,7 hPa 0,0 l/m 0 min 0 min 0 W/m 3,2 km/h (1 Bft) 100,00 %
21.03.2023 03:10 9,8 C 8,9 C 5,6 C 86 % 1016,7 hPa 0,0 l/m 0 min 0 min 0 W/m 3,2 km/h (1 Bft) 100,00 %
21.03.2023 03:12 9,8 C 8,9 C 5,6 C 86 % 1016,7 hPa 0,0 l/m 0 min 0 min 0 W/m 6,4 km/h (2 Bft) 100,00 %
21.03.2023 03:14 9,8 C 8,9 C 5,6 C 86 % 1016,7 hPa 0,0 l/m 0 min 0 min 0 W/m 6,4 km/h (2 Bft) 100,00 %
21.03.2023 03:16 9,8 C 8,9 C 5,6 C 86 % 1016,7 hPa 0,0 l/m 0 min 0 min 0 W/m 6,4 km/h (2 Bft) 100,00 %
21.03.2023 03:18 9,8 C 8,9 C 5,6 C 86 % 1016,6 hPa 0,0 l/m 0 min 0 min 0 W/m 6,4 km/h (2 Bft) 100,00 %
21.03.2023 03:20 9,8 C 8,9 C 5,6 C 86 % 1016,6 hPa 0,0 l/m 0 min 0 min 0 W/m 3,2 km/h (1 Bft) 100,00 %
21.03.2023 03:22 9,8 C 8,9 C 5,6 C 86 % 1016,6 hPa 0,0 l/m 0 min 0 min 0 W/m 3,2 km/h (1 Bft) 97,87 %
21.03.2023 03:24 9,8 C 8,9 C 5,6 C 86 % 1016,6 hPa 0,0 l/m 0 min 0 min 0 W/m 3,2 km/h (1 Bft) 100,00 %
21.03.2023 03:26 9,8 C 8,9 C 5,6 C 86 % 1016,5 hPa 0,0 l/m 0 min 0 min 0 W/m 0,0 km/h (0 Bft) 100,00 %
21.03.2023 03:28 9,8 C 8,9 C 5,6 C 86 % 1016,6 hPa 0,0 l/m 0 min 0 min 0 W/m 0,0 km/h (0 Bft) 100,00 %
21.03.2023 03:30 9,8 C 8,9 C 5,6 C 86 % 1016,5 hPa 0,0 l/m 0 min 0 min 0 W/m 0,0 km/h (0 Bft) 97,83 %
21.03.2023 03:32 9,8 C 8,9 C 5,6 C 86 % 1016,5 hPa 0,0 l/m 0 min 0 min 0 W/m 3,2 km/h (1 Bft) 97,87 %
21.03.2023 03:34 9,8 C 8,9 C 5,6 C 86 % 1016,5 hPa 0,0 l/m 0 min 0 min 0 W/m 3,2 km/h (1 Bft) 97,87 %
21.03.2023 03:36 9,8 C 8,9 C 5,6 C 86 % 1016,5 hPa 0,0 l/m 0 min 0 min 0 W/m 3,2 km/h (1 Bft) 97,87 %
21.03.2023 03:38 9,7 C 8,9 C 5,6 C 86 % 1016,4 hPa 0,0 l/m 0 min 0 min 0 W/m 6,4 km/h (2 Bft) 95,74 %
21.03.2023 03:40 9,7 C 8,9 C 5,6 C 86 % 1016,4 hPa 0,0 l/m 0 min 0 min 0 W/m 3,2 km/h (1 Bft) 95,74 %
21.03.2023 03:42 9,7 C 8,9 C 5,6 C 86 % 1016,4 hPa 0,0 l/m 0 min 0 min 0 W/m 3,2 km/h (1 Bft) 93,62 %
21.03.2023 03:44 9,7 C 8,9 C 5,6 C 86 % 1016,4 hPa 0,0 l/m 0 min 0 min 0 W/m 3,2 km/h (1 Bft) 95,65 %
21.03.2023 03:46 9,7 C 8,9 C 5,6 C 86 % 1016,4 hPa 0,0 l/m 0 min 0 min 0 W/m 6,4 km/h (2 Bft) 93,62 %
21.03.2023 03:48 9,7 C 8,9 C 5,6 C 86 % 1016,4 hPa 0,0 l/m 0 min 0 min 0 W/m 6,4 km/h (2 Bft) 95,74 %
21.03.2023 03:50 9,7 C 8,9 C 5,0 C 86 % 1016,4 hPa 0,0 l/m 0 min 0 min 0 W/m 6,4 km/h (2 Bft) 95,74 %
21.03.2023 03:52 9,7 C 8,9 C 5,0 C 86 % 1016,4 hPa 0,0 l/m 0 min 0 min 0 W/m 6,4 km/h (2 Bft) 89,36 %
21.03.2023 03:54 9,7 C 8,9 C 5,0 C 86 % 1016,4 hPa 0,0 l/m 0 min 0 min 0 W/m 3,2 km/h (1 Bft) 95,12 %
21.03.2023 03:56 9,6 C 8,9 C 5,0 C 86 % 1016,4 hPa 0,0 l/m 0 min 0 min 0 W/m 3,2 km/h (1 Bft) 95,74 %
21.03.2023 03:58 9,6 C 8,9 C 5,0 C 86 % 1016,4 hPa 0,0 l/m 0 min 0 min 0 W/m 3,2 km/h (1 Bft) 95,74 %
21.03.2023 04:00 9,6 C 8,3 C 5,0 C 86 % 1016,3 hPa 0,0 l/m 0 min 0 min 0 W/m 3,2 km/h (1 Bft) 95,74 %
21.03.2023 04:02 9,6 C 8,3 C 5,0 C 86 % 1016,3 hPa 0,0 l/m 0 min 0 min 0 W/m 3,2 km/h (1 Bft) 93,62 %
21.03.2023 04:04 9,6 C 8,3 C 5,0 C 86 % 1016,3 hPa 0,0 l/m 0 min 0 min 0 W/m 3,2 km/h (1 Bft) 95,74 %
21.03.2023 04:06 9,6 C 8,3 C 5,0 C 86 % 1016,3 hPa 0,0 l/m 0 min 0 min 0 W/m 6,4 km/h (2 Bft) 94,92 %
21.03.2023 04:08 9,6 C 8,3 C 5,0 C 86 % 1016,2 hPa 0,0 l/m 0 min 0 min 0 W/m 3,2 km/h (1 Bft) 100,00 %
21.03.2023 04:10 9,6 C 8,3 C 5,0 C 86 % 1016,2 hPa 0,0 l/m 0 min 0 min 0 W/m 3,2 km/h (1 Bft) 95,74 %
21.03.2023 04:12 9,6 C 8,3 C 5,0 C 86 % 1016,2 hPa 0,0 l/m 0 min 0 min 0 W/m 3,2 km/h (1 Bft) 95,74 %
21.03.2023 04:14 9,6 C 8,3 C 5,0 C 87 % 1016,2 hPa 0,0 l/m 0 min 0 min 0 W/m 3,2 km/h (1 Bft) 95,74 %
21.03.2023 04:16 9,6 C 8,3 C 5,0 C 87 % 1016,1 hPa 0,0 l/m 0 min 0 min 0 W/m 3,2 km/h (1 Bft) 93,48 %
21.03.2023 04:18 9,5 C 8,3 C 5,0 C 87 % 1016,2 hPa 0,0 l/m 0 min 0 min 0 W/m 6,4 km/h (2 Bft) 95,74 %
21.03.2023 04:20 9,5 C 8,3 C 5,0 C 87 % 1016,2 hPa 0,0 l/m 0 min 0 min 0 W/m 3,2 km/h (1 Bft) 93,62 %
21.03.2023 04:22 9,5 C 8,3 C 5,0 C 87 % 1016,1 hPa 0,0 l/m 0 min 0 min 0 W/m 6,4 km/h (2 Bft) 95,74 %
21.03.2023 04:24 9,4 C 8,3 C 5,0 C 87 % 1016,1 hPa 0,0 l/m 0 min 0 min 0 W/m 3,2 km/h (1 Bft) 96,00 %
21.03.2023 04:26 9,4 C 8,3 C 5,0 C 87 % 1016,1 hPa 0,0 l/m 0 min 0 min 0 W/m 6,4 km/h (2 Bft) 93,62 %
21.03.2023 04:28 9,4 C 8,3 C 5,0 C 87 % 1016,1 hPa 0,0 l/m 0 min 0 min 0 W/m 6,4 km/h (2 Bft) 97,87 %
21.03.2023 04:30 9,4 C 8,3 C 5,0 C 87 % 1016,1 hPa 0,0 l/m 0 min 0 min 0 W/m 6,4 km/h (2 Bft) 95,65 %
21.03.2023 04:32 9,4 C 8,3 C 5,0 C 87 % 1016,1 hPa 0,0 l/m 0 min 0 min 0 W/m 6,4 km/h (2 Bft) 95,74 %
21.03.2023 04:34 9,4 C 8,3 C 5,0 C 87 % 1016,1 hPa 0,0 l/m 0 min 0 min 0 W/m 6,4 km/h (2 Bft) 95,92 %
21.03.2023 04:36 9,4 C 8,3 C 5,0 C 88 % 1016,1 hPa 0,0 l/m 0 min 0 min 0 W/m 3,2 km/h (1 Bft) 95,74 %
21.03.2023 04:38 9,4 C 8,3 C 5,0 C 87 % 1016,1 hPa 0,0 l/m 0 min 0 min 0 W/m 6,4 km/h (2 Bft) 95,65 %
21.03.2023 04:40 9,4 C 8,3 C 5,0 C 88 % 1016,1 hPa 0,0 l/m 0 min 0 min 0 W/m 3,2 km/h (1 Bft) 97,87 %
21.03.2023 04:42 9,4 C 8,3 C 5,0 C 88 % 1016,1 hPa 0,0 l/m 0 min 0 min 0 W/m 6,4 km/h (2 Bft) 97,87 %
21.03.2023 04:44 9,4 C 8,3 C 5,0 C 88 % 1016,0 hPa 0,0 l/m 0 min 0 min 0 W/m 6,4 km/h (2 Bft) 97,87 %
21.03.2023 04:46 9,3 C 8,3 C 5,0 C 88 % 1015,9 hPa 0,0 l/m 0 min 0 min 0 W/m 6,4 km/h (2 Bft) 97,87 %
21.03.2023 04:48 9,4 C 8,3 C 5,0 C 88 % 1016,0 hPa 0,0 l/m 0 min 0 min 0 W/m 6,4 km/h (2 Bft) 97,87 %
21.03.2023 04:50 9,3 C 8,3 C 5,0 C 88 % 1016,0 hPa 0,0 l/m 0 min 0 min 0 W/m 3,2 km/h (1 Bft) 97,83 %
21.03.2023 04:52 9,3 C 8,3 C 5,0 C 88 % 1015,9 hPa 0,0 l/m 0 min 0 min 0 W/m 6,4 km/h (2 Bft) 95,74 %
21.03.2023 04:54 9,3 C 8,3 C 5,0 C 88 % 1015,9 hPa 0,0 l/m 0 min 0 min 0 W/m 6,4 km/h (2 Bft) 97,87 %
21.03.2023 04:56 9,3 C 8,3 C 5,0 C 88 % 1015,9 hPa 0,0 l/m 0 min 0 min 0 W/m 6,4 km/h (2 Bft) 97,14 %
21.03.2023 04:58 9,3 C 8,3 C 5,0 C 88 % 1015,9 hPa 0,0 l/m 0 min 0 min 0 W/m 6,4 km/h (2 Bft) 97,87 %
21.03.2023 05:00 9,4 C 8,3 C 5,0 C 88 % 1015,9 hPa 0,0 l/m 0 min 0 min 0 W/m 6,4 km/h (2 Bft) 97,87 %
21.03.2023 05:02 9,4 C 8,3 C 5,0 C 88 % 1015,9 hPa 0,0 l/m 0 min 0 min 0 W/m 3,2 km/h (1 Bft) 100,00 %
21.03.2023 05:04 9,3 C 8,3 C 5,0 C 88 % 1015,9 hPa 0,0 l/m 0 min 0 min 0 W/m 6,4 km/h (2 Bft) 98,00 %
21.03.2023 05:06 9,3 C 8,3 C 5,0 C 88 % 1015,9 hPa 0,0 l/m 0 min 0 min 0 W/m 3,2 km/h (1 Bft) 100,00 %
21.03.2023 05:08 9,3 C 8,3 C 5,0 C 88 % 1015,9 hPa 0,0 l/m 0 min 0 min 0 W/m 3,2 km/h (1 Bft) 100,00 %
21.03.2023 05:10 9,3 C 8,3 C 5,0 C 88 % 1015,9 hPa 0,0 l/m 0 min 0 min 0 W/m 3,2 km/h (1 Bft) 100,00 %
21.03.2023 05:12 9,3 C 8,3 C 5,0 C 88 % 1015,9 hPa 0,0 l/m 0 min 0 min 0 W/m 3,2 km/h (1 Bft) 100,00 %
21.03.2023 05:14 9,3 C 8,3 C 5,0 C 88 % 1015,9 hPa 0,0 l/m 0 min 0 min 0 W/m 3,2 km/h (1 Bft) 100,00 %
21.03.2023 05:16 9,3 C 8,3 C 5,0 C 89 % 1016,0 hPa 0,0 l/m 0 min 0 min 0 W/m 3,2 km/h (1 Bft) 100,00 %
21.03.2023 05:18 9,3 C 8,3 C 5,0 C 89 % 1016,0 hPa 0,0 l/m 0 min 0 min 0 W/m 6,4 km/h (2 Bft) 95,74 %
21.03.2023 05:20 9,3 C 8,3 C 5,0 C 89 % 1015,9 hPa 0,0 l/m 0 min 2 min 0 W/m 6,4 km/h (2 Bft) 100,00 %
21.03.2023 05:22 9,3 C 8,3 C 5,0 C 89 % 1015,9 hPa 0,0 l/m 0 min 0 min 0 W/m 3,2 km/h (1 Bft) 97,83 %
21.03.2023 05:24 9,3 C 8,3 C 5,0 C 89 % 1015,9 hPa 0,0 l/m 0 min 0 min 0 W/m 6,4 km/h (2 Bft) 100,00 %
21.03.2023 05:26 9,4 C 8,3 C 5,0 C 89 % 1015,9 hPa 0,0 l/m 0 min 0 min 0 W/m 3,2 km/h (1 Bft) 95,74 %
21.03.2023 05:28 9,4 C 8,3 C 5,0 C 89 % 1015,9 hPa 0,0 l/m 0 min 0 min 0 W/m 6,4 km/h (2 Bft) 98,11 %
21.03.2023 05:30 9,3 C 8,3 C 5,0 C 89 % 1015,8 hPa 0,0 l/m 0 min 0 min 0 W/m 3,2 km/h (1 Bft) 97,87 %
21.03.2023 05:32 9,3 C 8,3 C 5,0 C 89 % 1015,8 hPa 0,0 l/m 0 min 2 min 0 W/m 3,2 km/h (1 Bft) 97,87 %
21.03.2023 05:34 9,3 C 8,3 C 5,0 C 89 % 1015,8 hPa 0,0 l/m 0 min 2 min 0 W/m 3,2 km/h (1 Bft) 97,87 %
21.03.2023 05:36 9,3 C 8,3 C 5,0 C 89 % 1015,7 hPa 0,0 l/m 0 min 2 min 0 W/m 0,0 km/h (0 Bft) 98,00 %
21.03.2023 05:38 9,3 C 8,3 C 4,4 C 89 % 1015,7 hPa 0,0 l/m 0 min 0 min 0 W/m 6,4 km/h (2 Bft) 97,87 %
21.03.2023 05:40 9,3 C 8,3 C 4,4 C 89 % 1015,7 hPa 0,0 l/m 0 min 0 min 0 W/m 3,2 km/h (1 Bft) 97,37 %
21.03.2023 05:42 9,3 C 8,3 C 4,4 C 89 % 1015,7 hPa 0,0 l/m 0 min 0 min 0 W/m 6,4 km/h (2 Bft) 96,23 %
21.03.2023 05:44 9,3 C 8,3 C 4,4 C 89 % 1015,7 hPa 0,0 l/m 0 min 2 min 0 W/m 3,2 km/h (1 Bft) 97,87 %
21.03.2023 05:46 9,3 C 8,3 C 4,4 C 89 % 1015,7 hPa 0,0 l/m 0 min 0 min 0 W/m 6,4 km/h (2 Bft) 98,00 %
21.03.2023 05:48 9,3 C 8,3 C 4,4 C 89 % 1015,7 hPa 0,0 l/m 0 min 0 min 0 W/m 3,2 km/h (1 Bft) 97,87 %
21.03.2023 05:50 9,3 C 8,3 C 4,4 C 90 % 1015,7 hPa 0,0 l/m 0 min 2 min 0 W/m 12,9 km/h (3 Bft) 97,83 %
21.03.2023 05:52 9,3 C 8,3 C 4,4 C 90 % 1015,6 hPa 0,0 l/m 0 min 2 min 0 W/m 6,4 km/h (2 Bft) 97,87 %
21.03.2023 05:54 9,3 C 8,3 C 4,4 C 90 % 1015,6 hPa 0,0 l/m 0 min 2 min 0 W/m 6,4 km/h (2 Bft) 93,62 %
21.03.2023 05:56 9,3 C 8,3 C 4,4 C 90 % 1015,6 hPa 0,0 l/m 0 min 0 min 0 W/m 3,2 km/h (1 Bft) 97,87 %
21.03.2023 05:58 9,3 C 8,3 C 4,4 C 90 % 1015,6 hPa 0,0 l/m 0 min 2 min 0 W/m 3,2 km/h (1 Bft) 100,00 %
21.03.2023 06:00 9,3 C 8,3 C 4,4 C 90 % 1015,6 hPa 0,0 l/m 0 min 0 min 0 W/m 6,4 km/h (2 Bft) 100,00 %
21.03.2023 06:02 9,2 C 8,3 C 4,4 C 90 % 1015,6 hPa 0,0 l/m 0 min 0 min 0 W/m 9,7 km/h (2 Bft) 100,00 %
21.03.2023 06:04 9,2 C 8,3 C 4,4 C 90 % 1015,7 hPa 0,0 l/m 0 min 2 min 0 W/m 3,2 km/h (1 Bft) 100,00 %
21.03.2023 06:07 9,2 C 8,3 C 4,4 C 90 % 1015,7 hPa 0,0 l/m 0 min 3 min 0 W/m 3,2 km/h (1 Bft) 100,00 %
21.03.2023 06:08 9,2 C 8,3 C 4,4 C 90 % 1015,7 hPa 0,0 l/m 0 min 1 min 0 W/m 0,0 km/h (0 Bft) 100,00 %
21.03.2023 06:12 9,2 C 7,8 C 4,4 C 91 % 1015,7 hPa 0,2 l/m 0 min 4 min 0 W/m 6,4 km/h (2 Bft) 100,00 %
21.03.2023 06:14 9,2 C 7,8 C 4,4 C 91 % 1015,6 hPa 0,0 l/m 0 min 2 min 0 W/m 6,4 km/h (2 Bft) 100,00 %
21.03.2023 06:16 9,2 C 7,8 C 4,4 C 91 % 1015,6 hPa 0,0 l/m 0 min 0 min 0 W/m 3,2 km/h (1 Bft) 97,87 %
21.03.2023 06:18 9,2 C 7,8 C 4,4 C 91 % 1015,6 hPa 0,0 l/m 0 min 2 min 0 W/m 12,9 km/h (3 Bft) 100,00 %
21.03.2023 06:20 9,1 C 7,8 C 4,4 C 91 % 1015,5 hPa 0,0 l/m 0 min 0 min 0 W/m 6,4 km/h (2 Bft) 100,00 %
21.03.2023 06:22 9,1 C 7,8 C 4,4 C 91 % 1015,5 hPa 0,0 l/m 0 min 0 min 0 W/m 6,4 km/h (2 Bft) 100,00 %
21.03.2023 06:24 9,1 C 7,8 C 3,9 C 91 % 1015,5 hPa 0,0 l/m 0 min 0 min 0 W/m 6,4 km/h (2 Bft) 100,00 %
21.03.2023 06:26 9,1 C 7,8 C 3,9 C 91 % 1015,5 hPa 0,0 l/m 0 min 0 min 0 W/m 12,9 km/h (3 Bft) 100,00 %
21.03.2023 06:28 9,1 C 7,8 C 3,9 C 91 % 1015,5 hPa 0,0 l/m 0 min 0 min 0 W/m 6,4 km/h (2 Bft) 95,74 %
21.03.2023 06:30 9,1 C 7,8 C 3,9 C 91 % 1015,5 hPa 0,0 l/m 0 min 0 min 0 W/m 12,9 km/h (3 Bft) 100,00 %
21.03.2023 06:32 9,1 C 7,8 C 3,9 C 92 % 1015,5 hPa 0,0 l/m 0 min 0 min 0 W/m 6,4 km/h (2 Bft) 100,00 %
21.03.2023 06:34 9,0 C 7,8 C 3,9 C 92 % 1015,5 hPa 0,0 l/m 0 min 0 min 0 W/m 12,9 km/h (3 Bft) 100,00 %
21.03.2023 06:36 9,0 C 7,8 C 3,9 C 92 % 1015,5 hPa 0,0 l/m 0 min 0 min 0 W/m 6,4 km/h (2 Bft) 100,00 %
21.03.2023 06:38 9,0 C 7,8 C 4,4 C 92 % 1015,5 hPa 0,0 l/m 0 min 0 min 0 W/m 6,4 km/h (2 Bft) 95,65 %
21.03.2023 06:40 8,9 C 7,8 C 3,9 C 92 % 1015,5 hPa 0,0 l/m 0 min 0 min 0 W/m 6,4 km/h (2 Bft) 97,87 %
21.03.2023 06:42 8,9 C 7,8 C 3,9 C 92 % 1015,5 hPa 0,0 l/m 0 min 0 min 0 W/m 6,4 km/h (2 Bft) 95,74 %
21.03.2023 06:44 8,9 C 7,8 C 3,9 C 92 % 1015,5 hPa 0,0 l/m 0 min 0 min 0 W/m 6,4 km/h (2 Bft) 95,74 %
21.03.2023 06:46 8,9 C 7,8 C 3,9 C 92 % 1015,4 hPa 0,0 l/m 0 min 0 min 0 W/m 12,9 km/h (3 Bft) 95,74 %
21.03.2023 06:48 8,9 C 8,3 C 3,9 C 92 % 1015,5 hPa 0,0 l/m 0 min 0 min 0 W/m 6,4 km/h (2 Bft) 93,62 %
21.03.2023 06:50 8,9 C 8,3 C 3,9 C 92 % 1015,5 hPa 0,0 l/m 0 min 0 min 0 W/m 6,4 km/h (2 Bft) 93,62 %
21.03.2023 06:52 8,9 C 8,3 C 4,4 C 92 % 1015,5 hPa 0,0 l/m 0 min 0 min 0 W/m 12,9 km/h (3 Bft) 91,49 %
21.03.2023 06:54 8,8 C 8,3 C 4,4 C 92 % 1015,5 hPa 0,0 l/m 0 min 0 min 0 W/m 6,4 km/h (2 Bft) 93,48 %
21.03.2023 06:56 8,8 C 8,3 C 4,4 C 92 % 1015,5 hPa 0,0 l/m 0 min 0 min 2 W/m 9,7 km/h (2 Bft) 93,62 %
21.03.2023 06:58 8,8 C 8,3 C 4,4 C 92 % 1015,5 hPa 0,0 l/m 0 min 0 min 5 W/m 6,4 km/h (2 Bft) 93,62 %
21.03.2023 07:00 8,8 C 8,3 C 4,4 C 92 % 1015,4 hPa 0,0 l/m 0 min 0 min 5 W/m 6,4 km/h (2 Bft) 95,74 %
21.03.2023 07:02 8,8 C 8,3 C 4,4 C 92 % 1015,4 hPa 0,0 l/m 0 min 0 min 5 W/m 6,4 km/h (2 Bft) 93,62 %
21.03.2023 07:04 8,8 C 8,3 C 4,4 C 92 % 1015,5 hPa 0,0 l/m 0 min 0 min 7 W/m 12,9 km/h (3 Bft) 95,74 %
21.03.2023 07:06 8,8 C 8,3 C 4,4 C 92 % 1015,5 hPa 0,0 l/m 0 min 0 min 7 W/m 9,7 km/h (2 Bft) 94,83 %
21.03.2023 07:08 8,8 C 8,3 C 4,4 C 92 % 1015,5 hPa 0,0 l/m 0 min 0 min 7 W/m 6,4 km/h (2 Bft) 94,29 %
21.03.2023 07:10 8,8 C 8,3 C 4,4 C 92 % 1015,5 hPa 0,0 l/m 0 min 0 min 7 W/m 3,2 km/h (1 Bft) 89,36 %
21.03.2023 07:12 8,8 C 8,3 C 4,4 C 92 % 1015,5 hPa 0,0 l/m 0 min 0 min 7 W/m 6,4 km/h (2 Bft) 95,74 %
21.03.2023 07:14 8,8 C 8,3 C 4,4 C 92 % 1015,5 hPa 0,0 l/m 0 min 0 min 7 W/m 3,2 km/h (1 Bft) 95,74 %
21.03.2023 07:16 8,8 C 8,3 C 4,4 C 92 % 1015,5 hPa 0,0 l/m 0 min 0 min 9 W/m 3,2 km/h (1 Bft) 93,62 %
21.03.2023 07:18 8,8 C 8,3 C 4,4 C 93 % 1015,5 hPa 0,0 l/m 0 min 0 min 11 W/m 12,9 km/h (3 Bft) 95,74 %
21.03.2023 07:20 8,8 C 8,3 C 4,4 C 93 % 1015,5 hPa 0,0 l/m 0 min 0 min 13 W/m 6,4 km/h (2 Bft) 95,65 %
21.03.2023 07:22 8,8 C 8,3 C 4,4 C 93 % 1015,5 hPa 0,0 l/m 0 min 0 min 15 W/m 9,7 km/h (2 Bft) 95,74 %
21.03.2023 07:24 8,8 C 8,3 C 4,4 C 93 % 1015,5 hPa 0,0 l/m 0 min 0 min 18 W/m 12,9 km/h (3 Bft) 93,62 %
21.03.2023 07:26 8,8 C 8,3 C 4,4 C 93 % 1015,5 hPa 0,0 l/m 0 min 0 min 18 W/m 6,4 km/h (2 Bft) 95,74 %
21.03.2023 07:28 8,9 C 8,3 C 4,4 C 93 % 1015,5 hPa 0,0 l/m 0 min 0 min 16 W/m 9,7 km/h (2 Bft) 95,74 %
21.03.2023 07:30 8,9 C 8,3 C 4,4 C 93 % 1015,5 hPa 0,0 l/m 0 min 0 min 18 W/m 6,4 km/h (2 Bft) 95,74 %
21.03.2023 07:32 8,9 C 8,3 C 4,4 C 93 % 1015,5 hPa 0,0 l/m 0 min 0 min 18 W/m 6,4 km/h (2 Bft) 91,49 %
21.03.2023 07:34 8,9 C 8,3 C 4,4 C 93 % 1015,5 hPa 0,0 l/m 0 min 0 min 19 W/m 3,2 km/h (1 Bft) 97,83 %
21.03.2023 07:36 8,9 C 8,3 C 4,4 C 93 % 1015,5 hPa 0,0 l/m 0 min 0 min 19 W/m 6,4 km/h (2 Bft) 95,74 %
21.03.2023 07:38 8,9 C 8,3 C 4,4 C 93 % 1015,6 hPa 0,0 l/m 0 min 0 min 20 W/m 6,4 km/h (2 Bft) 95,74 %
21.03.2023 07:40 9,0 C 8,3 C 4,4 C 93 % 1015,6 hPa 0,0 l/m 0 min 0 min 22 W/m 9,7 km/h (2 Bft) 97,87 %
21.03.2023 07:42 9,0 C 8,3 C 5,0 C 93 % 1015,5 hPa 0,0 l/m 0 min 0 min 25 W/m 9,7 km/h (2 Bft) 95,74 %
21.03.2023 07:44 9,1 C 8,9 C 5,0 C 93 % 1015,6 hPa 0,0 l/m 0 min 0 min 26 W/m 6,4 km/h (2 Bft) 97,87 %
21.03.2023 07:46 9,1 C 8,9 C 5,0 C 93 % 1015,6 hPa 0,0 l/m 0 min 0 min 27 W/m 9,7 km/h (2 Bft) 97,83 %
21.03.2023 07:48 9,1 C 8,9 C 5,0 C 93 % 1015,7 hPa 0,0 l/m 0 min 0 min 31 W/m 12,9 km/h (3 Bft) 100,00 %
21.03.2023 07:50 9,1 C 8,9 C 5,0 C 93 % 1015,6 hPa 0,0 l/m 0 min 0 min 37 W/m 9,7 km/h (2 Bft) 100,00 %
21.03.2023 07:52 9,1 C 8,9 C 5,0 C 93 % 1015,6 hPa 0,0 l/m 0 min 0 min 41 W/m 12,9 km/h (3 Bft) 97,87 %
21.03.2023 07:54 9,1 C 8,9 C 5,0 C 93 % 1015,6 hPa 0,0 l/m 0 min 0 min 44 W/m 25,7 km/h (4 Bft) 100,00 %
21.03.2023 07:56 9,2 C 8,9 C 5,0 C 93 % 1015,6 hPa 0,0 l/m 0 min 0 min 48 W/m 19,3 km/h (3 Bft) 100,00 %
21.03.2023 07:58 9,2 C 8,9 C 5,6 C 93 % 1015,6 hPa 0,0 l/m 0 min 0 min 51 W/m 19,3 km/h (3 Bft) 100,00 %
21.03.2023 08:00 9,2 C 9,4 C 5,6 C 93 % 1015,6 hPa 0,0 l/m 0 min 0 min 52 W/m 19,3 km/h (3 Bft) 100,00 %
21.03.2023 08:02 9,3 C 9,4 C 5,6 C 92 % 1015,5 hPa 0,0 l/m 0 min 0 min 50 W/m 16,1 km/h (3 Bft) 97,87 %
21.03.2023 08:04 9,3 C 9,4 C 5,6 C 93 % 1015,5 hPa 0,0 l/m 0 min 0 min 53 W/m 12,9 km/h (3 Bft) 100,00 %
21.03.2023 08:06 9,4 C 9,4 C 5,6 C 92 % 1015,5 hPa 0,0 l/m 0 min 0 min 57 W/m 19,3 km/h (3 Bft) 100,00 %
21.03.2023 08:08 9,4 C 9,4 C 5,6 C 92 % 1015,4 hPa 0,0 l/m 0 min 0 min 61 W/m 12,9 km/h (3 Bft) 100,00 %
21.03.2023 08:10 9,4 C 9,4 C 5,6 C 92 % 1015,4 hPa 0,0 l/m 0 min 0 min 59 W/m 6,4 km/h (2 Bft) 100,00 %
21.03.2023 08:12 9,4 C 9,4 C 5,6 C 92 % 1015,4 hPa 0,0 l/m 0 min 0 min 58 W/m 9,7 km/h (2 Bft) 100,00 %
21.03.2023 08:14 9,5 C 9,4 C 5,6 C 92 % 1015,4 hPa 0,0 l/m 0 min 0 min 58 W/m 12,9 km/h (3 Bft) 97,83 %
21.03.2023 08:16 9,5 C 9,4 C 5,6 C 92 % 1015,4 hPa 0,0 l/m 0 min 0 min 58 W/m 6,4 km/h (2 Bft) 100,00 %
21.03.2023 08:18 9,6 C 9,4 C 5,6 C 92 % 1015,4 hPa 0,0 l/m 0 min 0 min 56 W/m 6,4 km/h (2 Bft) 97,87 %
21.03.2023 08:20 9,6 C 9,4 C 5,6 C 92 % 1015,4 hPa 0,0 l/m 0 min 0 min 52 W/m 6,4 km/h (2 Bft) 100,00 %
21.03.2023 08:22 9,6 C 9,4 C 5,6 C 92 % 1015,4 hPa 0,0 l/m 0 min 0 min 49 W/m 6,4 km/h (2 Bft) 100,00 %
21.03.2023 08:24 9,6 C 9,4 C 5,6 C 92 % 1015,4 hPa 0,0 l/m 0 min 0 min 52 W/m 12,9 km/h (3 Bft) 97,87 %
21.03.2023 08:26 9,6 C 9,4 C 5,6 C 92 % 1015,4 hPa 0,0 l/m 0 min 0 min 59 W/m 12,9 km/h (3 Bft) 93,62 %
21.03.2023 08:28 9,6 C 9,4 C 5,6 C 92 % 1015,5 hPa 0,0 l/m 0 min 0 min 61 W/m 6,4 km/h (2 Bft) 97,83 %
21.03.2023 08:30 9,7 C 9,4 C 5,6 C 92 % 1015,4 hPa 0,0 l/m 0 min 0 min 60 W/m 12,9 km/h (3 Bft) 100,00 %
21.03.2023 08:32 9,7 C 9,4 C 5,6 C 92 % 1015,4 hPa 0,0 l/m 0 min 2 min 65 W/m 6,4 km/h (2 Bft) 97,87 %
21.03.2023 08:34 9,7 C 9,4 C 5,6 C 91 % 1015,4 hPa 0,0 l/m 0 min 2 min 71 W/m 12,9 km/h (3 Bft) 100,00 %
21.03.2023 08:36 9,7 C 9,4 C 5,6 C 91 % 1015,4 hPa 0,0 l/m 0 min 2 min 76 W/m 6,4 km/h (2 Bft) 100,00 %
21.03.2023 08:38 9,7 C 9,4 C 5,6 C 91 % 1015,4 hPa 0,0 l/m 0 min 2 min 77 W/m 12,9 km/h (3 Bft) 97,87 %
21.03.2023 08:40 9,8 C 9,4 C 5,6 C 91 % 1015,4 hPa 0,0 l/m 0 min 0 min 72 W/m 12,9 km/h (3 Bft) 97,83 %
21.03.2023 08:42 9,8 C 9,4 C 5,6 C 91 % 1015,4 hPa 0,0 l/m 0 min 0 min 67 W/m 6,4 km/h (2 Bft) 100,00 %
21.03.2023 08:44 9,8 C 9,4 C 5,6 C 91 % 1015,4 hPa 0,0 l/m 0 min 0 min 62 W/m 12,9 km/h (3 Bft) 97,87 %
21.03.2023 08:46 9,8 C 9,4 C 5,6 C 92 % 1015,5 hPa 0,0 l/m 0 min 2 min 60 W/m 12,9 km/h (3 Bft) 100,00 %
21.03.2023 08:48 9,8 C 9,4 C 5,6 C 92 % 1015,5 hPa 0,0 l/m 0 min 2 min 58 W/m 19,3 km/h (3 Bft) 100,00 %
21.03.2023 08:50 9,8 C 9,4 C 5,6 C 92 % 1015,5 hPa 0,0 l/m 0 min 2 min 61 W/m 12,9 km/h (3 Bft) 95,74 %
21.03.2023 08:52 9,8 C 9,4 C 5,6 C 92 % 1015,6 hPa 0,2 l/m 0 min 2 min 65 W/m 9,7 km/h (2 Bft) 100,00 %
21.03.2023 08:54 9,8 C 9,4 C 5,6 C 92 % 1015,5 hPa 0,0 l/m 0 min 2 min 70 W/m 12,9 km/h (3 Bft) 95,65 %
21.03.2023 08:56 9,8 C 9,4 C 5,0 C 92 % 1015,5 hPa 0,0 l/m 0 min 2 min 70 W/m 12,9 km/h (3 Bft) 95,74 %
21.03.2023 08:58 9,8 C 9,4 C 5,0 C 92 % 1015,6 hPa 0,0 l/m 0 min 2 min 75 W/m 16,1 km/h (3 Bft) 100,00 %
21.03.2023 09:00 9,8 C 9,4 C 5,0 C 92 % 1015,6 hPa 0,0 l/m 0 min 2 min 80 W/m 9,7 km/h (2 Bft) 95,74 %
21.03.2023 09:02 9,8 C 9,4 C 5,0 C 92 % 1015,6 hPa 0,0 l/m 0 min 2 min 83 W/m 12,9 km/h (3 Bft) 93,62 %
21.03.2023 09:04 9,9 C 9,4 C 5,0 C 91 % 1015,6 hPa 0,0 l/m 0 min 2 min 82 W/m 12,9 km/h (3 Bft) 97,87 %
21.03.2023 09:06 9,9 C 9,4 C 5,0 C 92 % 1015,7 hPa 0,0 l/m 0 min 2 min 82 W/m 16,1 km/h (3 Bft) 95,74 %
21.03.2023 09:08 9,9 C 9,4 C 5,0 C 92 % 1015,7 hPa 0,0 l/m 0 min 2 min 84 W/m 22,5 km/h (4 Bft) 93,48 %
21.03.2023 09:10 9,9 C 9,4 C 5,0 C 92 % 1015,6 hPa 0,0 l/m 0 min 2 min 86 W/m 12,9 km/h (3 Bft) 95,74 %
21.03.2023 09:12 9,9 C 9,4 C 5,0 C 92 % 1015,6 hPa 0,0 l/m 0 min 2 min 85 W/m 12,9 km/h (3 Bft) 93,62 %
21.03.2023 09:14 9,9 C 9,4 C 5,0 C 92 % 1015,6 hPa 0,0 l/m 0 min 2 min 83 W/m 12,9 km/h (3 Bft) 93,62 %
21.03.2023 09:16 9,9 C 9,4 C 5,0 C 92 % 1015,6 hPa 0,0 l/m 0 min 2 min 79 W/m 12,9 km/h (3 Bft) 95,74 %
21.03.2023 09:18 9,9 C 9,4 C 5,0 C 92 % 1015,6 hPa 0,0 l/m 0 min 2 min 79 W/m 12,9 km/h (3 Bft) 95,74 %
21.03.2023 09:20 9,9 C 9,4 C 5,0 C 92 % 1015,7 hPa 0,0 l/m 0 min 2 min 79 W/m 9,7 km/h (2 Bft) 93,62 %
21.03.2023 09:22 9,9 C 9,4 C 5,0 C 92 % 1015,6 hPa 0,0 l/m 0 min 2 min 81 W/m 16,1 km/h (3 Bft) 95,65 %
21.03.2023 09:24 9,9 C 9,4 C 5,0 C 92 % 1015,6 hPa 0,0 l/m 0 min 2 min 82 W/m 6,4 km/h (2 Bft) 95,74 %
21.03.2023 09:26 9,9 C 9,4 C 5,0 C 92 % 1015,6 hPa 0,0 l/m 0 min 2 min 78 W/m 6,4 km/h (2 Bft) 93,62 %
21.03.2023 09:28 9,9 C 9,4 C 5,0 C 92 % 1015,6 hPa 0,2 l/m 0 min 2 min 77 W/m 9,7 km/h (2 Bft) 93,62 %
21.03.2023 09:30 9,9 C 9,4 C 5,0 C 92 % 1015,6 hPa 0,0 l/m 0 min 2 min 77 W/m 12,9 km/h (3 Bft) 95,74 %
21.03.2023 09:32 9,9 C 9,4 C 5,0 C 92 % 1015,6 hPa 0,0 l/m 0 min 2 min 74 W/m 9,7 km/h (2 Bft) 93,62 %
21.03.2023 09:34 9,9 C 9,4 C 5,0 C 92 % 1015,6 hPa 0,0 l/m 0 min 2 min 71 W/m 6,4 km/h (2 Bft) 97,87 %
21.03.2023 09:36 9,9 C 9,4 C 5,0 C 92 % 1015,6 hPa 0,0 l/m 0 min 2 min 72 W/m 12,9 km/h (3 Bft) 97,83 %
21.03.2023 09:38 9,9 C 9,4 C 5,0 C 93 % 1015,6 hPa 0,0 l/m 0 min 2 min 80 W/m 6,4 km/h (2 Bft) 97,87 %
21.03.2023 09:40 9,9 C 9,4 C 5,0 C 93 % 1015,6 hPa 0,0 l/m 0 min 2 min 89 W/m 12,9 km/h (3 Bft) 93,62 %
21.03.2023 09:42 9,9 C 9,4 C 5,0 C 93 % 1015,6 hPa 0,0 l/m 0 min 2 min 93 W/m 16,1 km/h (3 Bft) 95,74 %
21.03.2023 09:44 9,9 C 9,4 C 5,0 C 93 % 1015,6 hPa 0,2 l/m 0 min 2 min 90 W/m 9,7 km/h (2 Bft) 97,87 %
21.03.2023 09:46 9,9 C 9,4 C 5,0 C 93 % 1015,6 hPa 0,0 l/m 0 min 2 min 84 W/m 16,1 km/h (3 Bft) 100,00 %
21.03.2023 09:48 9,9 C 9,4 C 5,0 C 93 % 1015,7 hPa 0,0 l/m 0 min 2 min 81 W/m 12,9 km/h (3 Bft) 100,00 %
21.03.2023 09:50 9,9 C 9,4 C 5,0 C 93 % 1015,6 hPa 0,0 l/m 0 min 2 min 83 W/m 12,9 km/h (3 Bft) 100,00 %
21.03.2023 09:52 9,9 C 9,4 C 5,0 C 93 % 1015,6 hPa 0,0 l/m 0 min 2 min 88 W/m 12,9 km/h (3 Bft) 100,00 %
21.03.2023 09:54 9,9 C 9,4 C 5,0 C 93 % 1015,6 hPa 0,0 l/m 0 min 0 min 98 W/m 12,9 km/h (3 Bft) 97,87 %
21.03.2023 09:56 9,9 C 9,4 C 5,0 C 93 % 1015,6 hPa 0,0 l/m 0 min 0 min 107 W/m 12,9 km/h (3 Bft) 97,87 %
21.03.2023 09:58 9,9 C 9,4 C 5,6 C 94 % 1015,6 hPa 0,0 l/m 0 min 0 min 116 W/m 12,9 km/h (3 Bft) 95,74 %
21.03.2023 10:00 9,9 C 10,0 C 5,6 C 94 % 1015,6 hPa 0,0 l/m 0 min 0 min 123 W/m 12,9 km/h (3 Bft) 97,87 %
21.03.2023 10:02 10,0 C 10,0 C 5,6 C 94 % 1015,6 hPa 0,0 l/m 0 min 0 min 117 W/m 6,4 km/h (2 Bft) 97,87 %
21.03.2023 10:04 10,1 C 10,0 C 5,6 C 94 % 1015,7 hPa 0,0 l/m 0 min 0 min 118 W/m 9,7 km/h (2 Bft) 95,74 %
21.03.2023 10:06 10,1 C 10,0 C 5,6 C 94 % 1015,6 hPa 0,0 l/m 0 min 0 min 126 W/m 12,9 km/h (3 Bft) 97,87 %
21.03.2023 10:08 10,1 C 10,0 C 5,6 C 94 % 1015,6 hPa 0,0 l/m 0 min 0 min 128 W/m 6,4 km/h (2 Bft) 95,74 %
21.03.2023 10:10 10,1 C 10,0 C 5,6 C 94 % 1015,6 hPa 0,0 l/m 0 min 0 min 129 W/m 12,9 km/h (3 Bft) 97,87 %
21.03.2023 10:12 10,1 C 10,0 C 5,6 C 94 % 1015,6 hPa 0,0 l/m 0 min 0 min 130 W/m 9,7 km/h (2 Bft) 93,62 %
21.03.2023 10:14 10,2 C 10,0 C 5,6 C 94 % 1015,6 hPa 0,0 l/m 0 min 0 min 128 W/m 12,9 km/h (3 Bft) 97,87 %
21.03.2023 10:16 10,2 C 10,0 C 5,6 C 94 % 1015,6 hPa 0,0 l/m 0 min 0 min 130 W/m 22,5 km/h (4 Bft) 95,65 %
21.03.2023 10:18 10,2 C 10,0 C 5,6 C 94 % 1015,6 hPa 0,0 l/m 0 min 0 min 127 W/m 12,9 km/h (3 Bft) 95,74 %
21.03.2023 10:20 10,2 C 10,0 C 5,6 C 94 % 1015,5 hPa 0,0 l/m 0 min 0 min 121 W/m 16,1 km/h (3 Bft) 95,74 %
21.03.2023 10:22 10,2 C 10,0 C 5,6 C 94 % 1015,6 hPa 0,0 l/m 0 min 0 min 121 W/m 16,1 km/h (3 Bft) 95,74 %
21.03.2023 10:24 10,2 C 10,0 C 5,6 C 94 % 1015,6 hPa 0,0 l/m 0 min 0 min 124 W/m 9,7 km/h (2 Bft) 97,87 %
21.03.2023 10:26 10,2 C 10,0 C 5,6 C 94 % 1015,6 hPa 0,0 l/m 0 min 0 min 125 W/m 9,7 km/h (2 Bft) 95,74 %
21.03.2023 10:28 10,2 C 10,6 C 6,1 C 94 % 1015,6 hPa 0,0 l/m 0 min 0 min 134 W/m 6,4 km/h (2 Bft) 97,83 %
21.03.2023 10:30 10,2 C 10,6 C 6,1 C 94 % 1015,5 hPa 0,0 l/m 0 min 0 min 143 W/m 9,7 km/h (2 Bft) 97,87 %
21.03.2023 10:32 10,3 C 10,6 C 6,1 C 94 % 1015,5 hPa 0,0 l/m 0 min 0 min 138 W/m 12,9 km/h (3 Bft) 95,74 %
21.03.2023 10:34 10,3 C 10,6 C 6,1 C 94 % 1015,5 hPa 0,0 l/m 0 min 0 min 131 W/m 16,1 km/h (3 Bft) 97,87 %
21.03.2023 10:36 10,3 C 10,0 C 5,6 C 94 % 1015,5 hPa 0,0 l/m 0 min 0 min 125 W/m 16,1 km/h (3 Bft) 95,74 %
21.03.2023 10:38 10,3 C 10,0 C 5,6 C 94 % 1015,5 hPa 0,0 l/m 0 min 0 min 122 W/m 16,1 km/h (3 Bft) 97,87 %
21.03.2023 10:40 10,3 C 10,6 C 6,1 C 94 % 1015,5 hPa 0,0 l/m 0 min 0 min 123 W/m 12,9 km/h (3 Bft) 97,87 %
21.03.2023 10:42 10,3 C 10,0 C 5,6 C 94 % 1015,5 hPa 0,0 l/m 0 min 0 min 116 W/m 16,1 km/h (3 Bft) 95,65 %
21.03.2023 10:44 10,3 C 10,0 C 6,1 C 94 % 1015,4 hPa 0,0 l/m 0 min 0 min 113 W/m 9,7 km/h (2 Bft) 100,00 %
21.03.2023 10:46 10,3 C 10,0 C 6,1 C 94 % 1015,5 hPa 0,0 l/m 0 min 0 min 114 W/m 12,9 km/h (3 Bft) 97,87 %
21.03.2023 10:48 10,3 C 10,6 C 6,1 C 94 % 1015,5 hPa 0,0 l/m 0 min 0 min 121 W/m 12,9 km/h (3 Bft) 100,00 %
21.03.2023 10:50 10,3 C 10,6 C 6,1 C 94 % 1015,5 hPa 0,0 l/m 0 min 0 min 133 W/m 16,1 km/h (3 Bft) 97,87 %
21.03.2023 10:52 10,3 C 10,6 C 6,1 C 94 % 1015,4 hPa 0,0 l/m 0 min 2 min 126 W/m 16,1 km/h (3 Bft) 100,00 %
21.03.2023 10:54 10,4 C 10,6 C 6,1 C 94 % 1015,4 hPa 0,0 l/m 0 min 2 min 120 W/m 6,4 km/h (2 Bft) 100,00 %
21.03.2023 10:56 10,4 C 10,6 C 6,1 C 95 % 1015,4 hPa 0,0 l/m 0 min 2 min 116 W/m 6,4 km/h (2 Bft) 95,65 %
21.03.2023 10:58 10,4 C 10,6 C 6,1 C 95 % 1015,4 hPa 0,0 l/m 0 min 2 min 112 W/m 12,9 km/h (3 Bft) 94,00 %
21.03.2023 11:00 10,4 C 10,6 C 6,1 C 94 % 1015,4 hPa 0,0 l/m 0 min 2 min 108 W/m 12,9 km/h (3 Bft) 95,74 %
21.03.2023 11:02 10,4 C 10,6 C 6,1 C 94 % 1015,3 hPa 0,0 l/m 0 min 2 min 109 W/m 6,4 km/h (2 Bft) 97,87 %
21.03.2023 11:04 10,4 C 10,0 C 5,6 C 94 % 1015,3 hPa 0,2 l/m 0 min 2 min 108 W/m 19,3 km/h (3 Bft) 97,87 %
21.03.2023 11:06 10,4 C 10,0 C 5,6 C 94 % 1015,3 hPa 0,0 l/m 0 min 2 min 107 W/m 19,3 km/h (3 Bft) 97,87 %
21.03.2023 11:08 10,4 C 10,0 C 5,6 C 94 % 1015,2 hPa 0,0 l/m 0 min 2 min 111 W/m 12,9 km/h (3 Bft) 95,65 %
21.03.2023 11:10 10,4 C 10,0 C 5,6 C 94 % 1015,3 hPa 0,2 l/m 0 min 2 min 116 W/m 19,3 km/h (3 Bft) 93,62 %
21.03.2023 11:12 10,4 C 10,0 C 5,6 C 94 % 1015,2 hPa 0,0 l/m 0 min 2 min 119 W/m 16,1 km/h (3 Bft) 47,37 %
21.03.2023 11:14 10,4 C 10,0 C 5,6 C 94 % 1015,2 hPa 0,0 l/m 0 min 2 min 121 W/m 16,1 km/h (3 Bft) 95,74 %
21.03.2023 11:16 10,4 C 10,0 C 5,6 C 94 % 1015,2 hPa 0,0 l/m 0 min 2 min 118 W/m 19,3 km/h (3 Bft) 97,87 %
21.03.2023 11:18 10,4 C 10,0 C 5,6 C 94 % 1015,0 hPa 0,0 l/m 0 min 2 min 122 W/m 16,1 km/h (3 Bft) 97,87 %
21.03.2023 11:20 10,3 C 10,0 C 5,6 C 94 % 1015,0 hPa 0,2 l/m 0 min 0 min 131 W/m 12,9 km/h (3 Bft) 97,87 %
21.03.2023 11:22 10,3 C 10,0 C 5,6 C 94 % 1015,0 hPa 0,0 l/m 0 min 0 min 148 W/m 12,9 km/h (3 Bft) 95,65 %
21.03.2023 11:24 10,3 C 10,0 C 5,6 C 94 % 1015,0 hPa 0,0 l/m 0 min 2 min 170 W/m 12,9 km/h (3 Bft) 97,22 %
21.03.2023 11:26 10,4 C 10,0 C 5,6 C 95 % 1015,0 hPa 0,0 l/m 0 min 0 min 185 W/m 16,1 km/h (3 Bft) 97,83 %
21.03.2023 11:28 10,4 C 10,6 C 6,1 C 95 % 1014,9 hPa 0,0 l/m 0 min 0 min 199 W/m 19,3 km/h (3 Bft) 95,74 %
21.03.2023 11:30 10,4 C 10,6 C 6,1 C 94 % 1014,9 hPa 0,0 l/m 0 min 0 min 199 W/m 16,1 km/h (3 Bft) 100,00 %
21.03.2023 11:32 10,4 C 10,6 C 6,1 C 94 % 1014,9 hPa 0,0 l/m 0 min 0 min 195 W/m 9,7 km/h (2 Bft) 97,87 %
21.03.2023 11:34 10,4 C 10,6 C 6,1 C 95 % 1014,8 hPa 0,0 l/m 0 min 0 min 186 W/m 16,1 km/h (3 Bft) 100,00 %
21.03.2023 11:36 10,4 C 10,6 C 6,1 C 95 % 1014,8 hPa 0,0 l/m 0 min 0 min 180 W/m 16,1 km/h (3 Bft) 97,83 %
21.03.2023 11:38 10,4 C 10,6 C 6,1 C 95 % 1014,8 hPa 0,0 l/m 0 min 0 min 185 W/m 16,1 km/h (3 Bft) 97,87 %
21.03.2023 11:40 10,5 C 10,6 C 6,1 C 95 % 1014,7 hPa 0,0 l/m 0 min 0 min 195 W/m 16,1 km/h (3 Bft) 95,74 %
21.03.2023 11:42 10,5 C 10,6 C 6,1 C 95 % 1014,7 hPa 0,0 l/m 0 min 0 min 191 W/m 16,1 km/h (3 Bft) 95,74 %
21.03.2023 11:44 10,5 C 10,6 C 6,1 C 95 % 1014,7 hPa 0,0 l/m 0 min 0 min 180 W/m 19,3 km/h (3 Bft) 93,62 %
21.03.2023 11:46 10,5 C 10,6 C 6,1 C 95 % 1014,6 hPa 0,0 l/m 0 min 0 min 179 W/m 12,9 km/h (3 Bft) 97,87 %
21.03.2023 11:48 10,5 C 10,6 C 6,1 C 95 % 1014,6 hPa 0,0 l/m 0 min 0 min 185 W/m 16,1 km/h (3 Bft) 97,87 %
21.03.2023 11:50 10,6 C 10,6 C 6,1 C 95 % 1014,6 hPa 0,0 l/m 0 min 0 min 187 W/m 9,7 km/h (2 Bft) 97,83 %
21.03.2023 11:52 10,6 C 11,1 C 6,1 C 95 % 1014,6 hPa 0,0 l/m 0 min 0 min 192 W/m 12,9 km/h (3 Bft) 97,87 %
21.03.2023 11:54 10,6 C 11,1 C 6,1 C 95 % 1014,5 hPa 0,0 l/m 0 min 0 min 199 W/m 19,3 km/h (3 Bft) 95,74 %
21.03.2023 11:56 10,6 C 11,1 C 6,1 C 95 % 1014,5 hPa 0,0 l/m 0 min 0 min 203 W/m 19,3 km/h (3 Bft) 95,74 %
21.03.2023 11:58 10,6 C 11,1 C 6,1 C 95 % 1014,4 hPa 0,0 l/m 0 min 0 min 198 W/m 16,1 km/h (3 Bft) 97,87 %
21.03.2023 12:00 10,7 C 11,1 C 6,1 C 94 % 1014,5 hPa 0,0 l/m 0 min 0 min 189 W/m 16,1 km/h (3 Bft) 97,87 %
21.03.2023 12:02 10,7 C 11,1 C 6,1 C 94 % 1014,4 hPa 0,0 l/m 0 min 0 min 208 W/m 19,3 km/h (3 Bft) 97,83 %
21.03.2023 12:04 10,7 C 11,1 C 6,1 C 94 % 1014,3 hPa 0,0 l/m 0 min 0 min 240 W/m 22,5 km/h (4 Bft) 97,87 %
21.03.2023 12:07 10,7 C 11,7 C 6,1 C 94 % 1014,3 hPa 0,0 l/m 0 min 0 min 256 W/m 19,3 km/h (3 Bft) 98,59 %
21.03.2023 12:10 10,8 C 11,1 C 6,1 C 94 % 1014,3 hPa 0,0 l/m 0 min 0 min 201 W/m 16,1 km/h (3 Bft) 97,25 %
21.03.2023 12:12 10,8 C 11,7 C 6,1 C 94 % 1014,3 hPa 0,0 l/m 0 min 0 min 203 W/m 12,9 km/h (3 Bft) 98,53 %
21.03.2023 12:14 10,9 C 11,7 C 6,1 C 94 % 1014,3 hPa 0,0 l/m 0 min 0 min 226 W/m 19,3 km/h (3 Bft) 97,87 %
21.03.2023 12:16 10,9 C 11,7 C 6,1 C 94 % 1014,3 hPa 0,0 l/m 0 min 0 min 265 W/m 25,7 km/h (4 Bft) 97,87 %
21.03.2023 12:18 10,9 C 12,2 C 6,7 C 94 % 1014,3 hPa 0,0 l/m 0 min 0 min 291 W/m 22,5 km/h (4 Bft) 97,87 %
21.03.2023 12:20 11,1 C 11,7 C 6,7 C 94 % 1014,3 hPa 0,0 l/m 0 min 0 min 283 W/m 25,7 km/h (4 Bft) 100,00 %
21.03.2023 12:22 11,1 C 12,2 C 6,7 C 93 % 1014,3 hPa 0,0 l/m 0 min 0 min 245 W/m 19,3 km/h (3 Bft) 97,87 %
21.03.2023 12:24 11,2 C 11,7 C 6,7 C 93 % 1014,3 hPa 0,0 l/m 0 min 0 min 223 W/m 25,7 km/h (4 Bft) 97,83 %
21.03.2023 12:26 11,2 C 11,7 C 6,7 C 93 % 1014,3 hPa 0,0 l/m 0 min 0 min 235 W/m 29,0 km/h (5 Bft) 95,74 %
21.03.2023 12:28 11,2 C 11,7 C 6,7 C 92 % 1014,3 hPa 0,0 l/m 0 min 2 min 259 W/m 38,6 km/h (5 Bft) 100,00 %
21.03.2023 12:30 11,2 C 11,7 C 6,7 C 91 % 1014,3 hPa 0,0 l/m 0 min 0 min 255 W/m 25,7 km/h (4 Bft) 100,00 %
21.03.2023 12:32 11,3 C 11,7 C 6,1 C 91 % 1014,3 hPa 0,0 l/m 0 min 0 min 238 W/m 25,7 km/h (4 Bft) 100,00 %
21.03.2023 12:34 11,3 C 11,7 C 6,7 C 91 % 1014,2 hPa 0,0 l/m 0 min 0 min 225 W/m 25,7 km/h (4 Bft) 100,00 %
21.03.2023 12:36 11,4 C 11,7 C 6,7 C 91 % 1014,2 hPa 0,0 l/m 0 min 0 min 217 W/m 22,5 km/h (4 Bft) 100,00 %
21.03.2023 12:38 11,4 C 11,7 C 6,7 C 91 % 1014,2 hPa 0,0 l/m 0 min 0 min 207 W/m 19,3 km/h (3 Bft) 100,00 %
21.03.2023 12:40 11,4 C 11,7 C 6,7 C 91 % 1014,1 hPa 0,0 l/m 0 min 0 min 193 W/m 19,3 km/h (3 Bft) 100,00 %
21.03.2023 12:42 11,4 C 11,1 C 6,1 C 90 % 1014,2 hPa 0,0 l/m 0 min 0 min 177 W/m 19,3 km/h (3 Bft) 100,00 %
21.03.2023 12:44 11,4 C 11,1 C 6,1 C 90 % 1014,1 hPa 0,0 l/m 0 min 0 min 168 W/m 19,3 km/h (3 Bft) 100,00 %
21.03.2023 12:46 11,4 C 11,1 C 6,7 C 90 % 1014,1 hPa 0,0 l/m 0 min 0 min 159 W/m 22,5 km/h (4 Bft) 100,00 %
21.03.2023 12:48 11,4 C 11,1 C 6,1 C 90 % 1014,1 hPa 0,0 l/m 0 min 0 min 153 W/m 22,5 km/h (4 Bft) 97,87 %
21.03.2023 12:50 11,4 C 11,1 C 6,1 C 90 % 1014,1 hPa 0,0 l/m 0 min 0 min 149 W/m 22,5 km/h (4 Bft) 97,83 %
21.03.2023 12:52 11,4 C 11,1 C 6,1 C 90 % 1014,1 hPa 0,0 l/m 0 min 0 min 150 W/m 19,3 km/h (3 Bft) 97,87 %
21.03.2023 12:54 11,4 C 11,1 C 6,1 C 90 % 1014,1 hPa 0,0 l/m 0 min 0 min 155 W/m 16,1 km/h (3 Bft) 95,74 %
21.03.2023 12:56 11,4 C 11,1 C 6,1 C 90 % 1014,2 hPa 0,0 l/m 0 min 0 min 156 W/m 22,5 km/h (4 Bft) 95,74 %
21.03.2023 12:58 11,4 C 11,1 C 6,1 C 90 % 1014,2 hPa 0,0 l/m 0 min 0 min 155 W/m 16,1 km/h (3 Bft) 95,74 %
21.03.2023 13:00 11,4 C 11,1 C 6,7 C 90 % 1014,2 hPa 0,0 l/m 0 min 0 min 148 W/m 16,1 km/h (3 Bft) 95,74 %
21.03.2023 13:02 11,4 C 11,1 C 6,1 C 90 % 1014,3 hPa 0,0 l/m 0 min 0 min 136 W/m 19,3 km/h (3 Bft) 95,74 %
21.03.2023 13:04 11,4 C 11,1 C 6,1 C 90 % 1014,3 hPa 0,0 l/m 0 min 0 min 121 W/m 22,5 km/h (4 Bft) 95,65 %
21.03.2023 13:06 11,4 C 11,1 C 6,1 C 90 % 1014,2 hPa 0,0 l/m 0 min 0 min 110 W/m 19,3 km/h (3 Bft) 91,53 %
21.03.2023 13:08 11,4 C 11,1 C 6,1 C 90 % 1014,2 hPa 0,0 l/m 0 min 2 min 109 W/m 16,1 km/h (3 Bft) 94,29 %
21.03.2023 13:10 11,4 C 10,6 C 6,1 C 90 % 1014,1 hPa 0,0 l/m 0 min 2 min 116 W/m 22,5 km/h (4 Bft) 93,62 %
21.03.2023 13:12 11,4 C 10,6 C 6,1 C 90 % 1014,2 hPa 0,0 l/m 0 min 2 min 135 W/m 19,3 km/h (3 Bft) 95,74 %
21.03.2023 13:14 11,3 C 10,6 C 6,1 C 90 % 1014,2 hPa 0,0 l/m 0 min 2 min 161 W/m 16,1 km/h (3 Bft) 93,62 %
21.03.2023 13:16 11,3 C 10,6 C 6,1 C 90 % 1014,1 hPa 0,0 l/m 0 min 2 min 181 W/m 19,3 km/h (3 Bft) 51,16 %
21.03.2023 13:18 11,3 C 10,6 C 6,1 C 90 % 1014,1 hPa 0,0 l/m 0 min 0 min 183 W/m 6,4 km/h (2 Bft) 4,76 %
21.03.2023 13:20 11,3 C 11,1 C 6,1 C 91 % 1014,1 hPa 0,0 l/m 0 min 0 min 195 W/m 16,1 km/h (3 Bft) 100,00 %
21.03.2023 13:22 11,3 C 11,1 C 6,7 C 91 % 1014,1 hPa 0,0 l/m 0 min 0 min 233 W/m 16,1 km/h (3 Bft) 95,74 %
21.03.2023 13:24 11,4 C 11,1 C 6,7 C 91 % 1014,1 hPa 0,0 l/m 0 min 0 min 237 W/m 16,1 km/h (3 Bft) 93,62 %
21.03.2023 13:26 11,4 C 11,7 C 6,7 C 91 % 1014,0 hPa 0,0 l/m 0 min 0 min 241 W/m 16,1 km/h (3 Bft) 93,62 %
21.03.2023 13:28 11,4 C 11,7 C 6,7 C 91 % 1014,0 hPa 0,0 l/m 0 min 0 min 252 W/m 16,1 km/h (3 Bft) 95,74 %
21.03.2023 13:30 11,4 C 11,7 C 6,7 C 91 % 1014,0 hPa 0,0 l/m 0 min 0 min 265 W/m 9,7 km/h (2 Bft) 97,83 %
21.03.2023 13:32 11,4 C 12,2 C 7,2 C 91 % 1014,0 hPa 0,0 l/m 0 min 0 min 279 W/m 16,1 km/h (3 Bft) 97,87 %
21.03.2023 13:34 11,6 C 12,2 C 7,2 C 91 % 1013,9 hPa 0,0 l/m 0 min 0 min 293 W/m 16,1 km/h (3 Bft) 97,87 %
21.03.2023 13:36 11,6 C 12,2 C 7,2 C 91 % 1013,9 hPa 0,0 l/m 2 min 0 min 305 W/m 25,7 km/h (4 Bft) 97,87 %
21.03.2023 13:38 11,6 C 12,8 C 7,2 C 91 % 1013,8 hPa 0,0 l/m 2 min 0 min 309 W/m 16,1 km/h (3 Bft) 97,87 %
21.03.2023 13:40 11,7 C 12,2 C 7,2 C 91 % 1013,8 hPa 0,0 l/m 0 min 0 min 297 W/m 22,5 km/h (4 Bft) 100,00 %
21.03.2023 13:42 11,7 C 12,2 C 7,2 C 91 % 1013,8 hPa 0,0 l/m 0 min 0 min 283 W/m 19,3 km/h (3 Bft) 95,74 %
21.03.2023 13:44 11,7 C 12,8 C 7,2 C 91 % 1013,7 hPa 0,0 l/m 0 min 0 min 275 W/m 19,3 km/h (3 Bft) 97,83 %
21.03.2023 13:46 11,8 C 12,2 C 7,2 C 91 % 1013,6 hPa 0,0 l/m 0 min 0 min 263 W/m 22,5 km/h (4 Bft) 100,00 %
21.03.2023 13:48 11,8 C 12,2 C 7,2 C 91 % 1013,6 hPa 0,0 l/m 0 min 0 min 247 W/m 16,1 km/h (3 Bft) 100,00 %
21.03.2023 13:50 11,8 C 12,2 C 7,2 C 91 % 1013,6 hPa 0,0 l/m 0 min 0 min 238 W/m 19,3 km/h (3 Bft) 97,87 %
21.03.2023 13:52 11,9 C 12,8 C 7,8 C 91 % 1013,6 hPa 0,0 l/m 0 min 0 min 258 W/m 16,1 km/h (3 Bft) 95,74 %
21.03.2023 13:54 11,9 C 12,8 C 7,8 C 91 % 1013,6 hPa 0,0 l/m 0 min 0 min 280 W/m 19,3 km/h (3 Bft) 97,87 %
21.03.2023 13:56 11,9 C 12,8 C 7,8 C 91 % 1013,6 hPa 0,0 l/m 2 min 0 min 299 W/m 12,9 km/h (3 Bft) 97,87 %
21.03.2023 13:58 12,0 C 12,8 C 7,8 C 91 % 1013,4 hPa 0,0 l/m 2 min 0 min 322 W/m 19,3 km/h (3 Bft) 97,83 %
21.03.2023 14:00 12,1 C 13,3 C 7,8 C 91 % 1013,4 hPa 0,0 l/m 2 min 0 min 327 W/m 19,3 km/h (3 Bft) 97,87 %
21.03.2023 14:02 12,1 C 12,8 C 8,3 C 90 % 1013,4 hPa 0,0 l/m 2 min 0 min 317 W/m 19,3 km/h (3 Bft) 97,87 %
21.03.2023 14:04 12,1 C 12,8 C 8,3 C 90 % 1013,3 hPa 0,0 l/m 2 min 0 min 306 W/m 16,1 km/h (3 Bft) 100,00 %
21.03.2023 14:06 12,1 C 12,8 C 8,3 C 90 % 1013,3 hPa 0,0 l/m 2 min 0 min 334 W/m 25,7 km/h (4 Bft) 100,00 %
21.03.2023 14:08 12,1 C 12,8 C 8,3 C 89 % 1013,3 hPa 0,0 l/m 2 min 0 min 323 W/m 19,3 km/h (3 Bft) 95,74 %
21.03.2023 14:10 12,2 C 12,8 C 8,3 C 89 % 1013,3 hPa 0,0 l/m 2 min 0 min 290 W/m 22,5 km/h (4 Bft) 100,00 %
21.03.2023 14:12 12,2 C 12,8 C 8,3 C 89 % 1013,3 hPa 0,0 l/m 0 min 0 min 278 W/m 19,3 km/h (3 Bft) 100,00 %
21.03.2023 14:14 12,2 C 12,8 C 8,3 C 89 % 1013,3 hPa 0,0 l/m 2 min 0 min 318 W/m 22,5 km/h (4 Bft) 100,00 %
21.03.2023 14:16 12,2 C 12,8 C 8,3 C 89 % 1013,2 hPa 0,0 l/m 2 min 0 min 346 W/m 16,1 km/h (3 Bft) 97,87 %
21.03.2023 14:18 12,3 C 13,3 C 8,3 C 89 % 1013,2 hPa 0,0 l/m 2 min 0 min 364 W/m 19,3 km/h (3 Bft) 95,74 %
21.03.2023 14:20 12,3 C 13,3 C 8,9 C 89 % 1013,2 hPa 0,0 l/m 2 min 0 min 414 W/m 19,3 km/h (3 Bft) 95,74 %
21.03.2023 14:22 12,3 C 13,9 C 8,9 C 89 % 1013,2 hPa 0,0 l/m 2 min 0 min 456 W/m 25,7 km/h (4 Bft) 97,87 %
21.03.2023 14:24 12,4 C 14,4 C 8,9 C 89 % 1013,0 hPa 0,0 l/m 2 min 0 min 457 W/m 16,1 km/h (3 Bft) 97,87 %
21.03.2023 14:26 12,5 C 14,4 C 8,9 C 89 % 1013,0 hPa 0,0 l/m 2 min 0 min 421 W/m 19,3 km/h (3 Bft) 97,83 %
21.03.2023 14:28 12,6 C 14,4 C 8,9 C 89 % 1013,0 hPa 0,0 l/m 2 min 0 min 358 W/m 12,9 km/h (3 Bft) 97,87 %
21.03.2023 14:30 12,6 C 13,9 C 8,9 C 88 % 1012,9 hPa 0,0 l/m 2 min 0 min 282 W/m 22,5 km/h (4 Bft) 97,87 %
21.03.2023 14:32 12,6 C 13,3 C 8,9 C 88 % 1013,0 hPa 0,0 l/m 2 min 0 min 296 W/m 25,7 km/h (4 Bft) 97,87 %
21.03.2023 14:34 12,7 C 13,3 C 8,9 C 88 % 1013,0 hPa 0,0 l/m 2 min 0 min 288 W/m 16,1 km/h (3 Bft) 97,87 %
21.03.2023 14:36 12,7 C 13,9 C 8,9 C 87 % 1013,0 hPa 0,0 l/m 2 min 0 min 295 W/m 16,1 km/h (3 Bft) 97,87 %
21.03.2023 14:38 12,7 C 13,3 C 8,9 C 87 % 1012,9 hPa 0,0 l/m 2 min 0 min 297 W/m 22,5 km/h (4 Bft) 97,83 %
21.03.2023 14:40 12,7 C 13,3 C 8,9 C 87 % 1012,9 hPa 0,0 l/m 2 min 0 min 291 W/m 22,5 km/h (4 Bft) 95,74 %
21.03.2023 14:42 12,7 C 12,8 C 8,9 C 87 % 1012,9 hPa 0,0 l/m 2 min 0 min 274 W/m 25,7 km/h (4 Bft) 97,87 %
21.03.2023 14:44 12,7 C 12,8 C 8,9 C 86 % 1012,9 hPa 0,0 l/m 2 min 0 min 275 W/m 22,5 km/h (4 Bft) 97,87 %
21.03.2023 14:46 12,7 C 12,8 C 8,9 C 86 % 1013,0 hPa 0,0 l/m 2 min 0 min 287 W/m 19,3 km/h (3 Bft) 97,87 %
21.03.2023 14:48 12,7 C 13,3 C 8,9 C 86 % 1012,9 hPa 0,0 l/m 2 min 0 min 287 W/m 22,5 km/h (4 Bft) 97,87 %
21.03.2023 14:50 12,7 C 13,3 C 8,9 C 86 % 1012,9 hPa 0,0 l/m 2 min 0 min 279 W/m 12,9 km/h (3 Bft) 97,87 %
21.03.2023 14:52 12,7 C 13,3 C 8,9 C 86 % 1012,9 hPa 0,0 l/m 2 min 0 min 274 W/m 19,3 km/h (3 Bft) 97,83 %
21.03.2023 14:54 12,7 C 13,3 C 8,9 C 86 % 1012,8 hPa 0,0 l/m 2 min 0 min 287 W/m 22,5 km/h (4 Bft) 97,87 %
21.03.2023 14:56 12,7 C 13,3 C 8,9 C 86 % 1012,9 hPa 0,0 l/m 2 min 0 min 329 W/m 16,1 km/h (3 Bft) 95,74 %
21.03.2023 14:58 12,8 C 13,3 C 8,9 C 86 % 1012,9 hPa 0,0 l/m 2 min 0 min 361 W/m 19,3 km/h (3 Bft) 97,87 %
21.03.2023 15:00 12,8 C 13,9 C 8,9 C 86 % 1013,0 hPa 0,0 l/m 2 min 0 min 427 W/m 16,1 km/h (3 Bft) 97,87 %
21.03.2023 15:02 12,9 C 14,4 C 9,4 C 86 % 1012,9 hPa 0,0 l/m 2 min 0 min 448 W/m 16,1 km/h (3 Bft) 95,74 %
21.03.2023 15:04 12,9 C 14,4 C 9,4 C 86 % 1012,9 hPa 0,0 l/m 2 min 0 min 456 W/m 22,5 km/h (4 Bft) 95,65 %
21.03.2023 15:06 13,0 C 14,4 C 9,4 C 86 % 1013,0 hPa 0,0 l/m 2 min 0 min 430 W/m 16,1 km/h (3 Bft) 93,75 %
21.03.2023 15:08 13,1 C 14,4 C 9,4 C 86 % 1012,9 hPa 0,0 l/m 2 min 0 min 393 W/m 12,9 km/h (3 Bft) 95,74 %
21.03.2023 15:10 13,1 C 14,4 C 9,4 C 86 % 1012,9 hPa 0,0 l/m 2 min 0 min 335 W/m 19,3 km/h (3 Bft) 97,87 %
21.03.2023 15:12 13,1 C 13,9 C 9,4 C 85 % 1012,8 hPa 0,0 l/m 2 min 0 min 255 W/m 19,3 km/h (3 Bft) 97,87 %
21.03.2023 15:14 13,2 C 13,9 C 9,4 C 85 % 1012,8 hPa 0,0 l/m 0 min 0 min 227 W/m 12,9 km/h (3 Bft) 97,87 %
21.03.2023 15:16 13,2 C 13,3 C 8,9 C 85 % 1012,7 hPa 0,0 l/m 0 min 0 min 226 W/m 19,3 km/h (3 Bft) 97,87 %
21.03.2023 15:18 13,2 C 13,3 C 8,9 C 85 % 1012,7 hPa 0,0 l/m 0 min 0 min 233 W/m 19,3 km/h (3 Bft) 95,74 %
21.03.2023 15:20 13,2 C 13,3 C 9,4 C 85 % 1012,6 hPa 0,0 l/m 2 min 0 min 248 W/m 19,3 km/h (3 Bft) 97,83 %
21.03.2023 15:22 13,2 C 13,3 C 9,4 C 85 % 1012,7 hPa 0,0 l/m 0 min 0 min 234 W/m 19,3 km/h (3 Bft) 97,87 %
21.03.2023 15:24 13,2 C 13,3 C 9,4 C 85 % 1012,6 hPa 0,0 l/m 0 min 0 min 230 W/m 12,9 km/h (3 Bft) 97,87 %
21.03.2023 15:26 13,2 C 13,3 C 9,4 C 85 % 1012,6 hPa 0,0 l/m 0 min 0 min 222 W/m 19,3 km/h (3 Bft) 97,87 %
21.03.2023 15:28 13,3 C 13,3 C 9,4 C 85 % 1012,6 hPa 0,0 l/m 0 min 0 min 218 W/m 12,9 km/h (3 Bft) 97,87 %
21.03.2023 15:30 13,3 C 13,9 C 9,4 C 85 % 1012,6 hPa 0,0 l/m 2 min 0 min 239 W/m 6,4 km/h (2 Bft) 95,74 %
21.03.2023 15:32 13,3 C 13,9 C 9,4 C 85 % 1012,6 hPa 0,0 l/m 2 min 0 min 278 W/m 16,1 km/h (3 Bft) 95,65 %
21.03.2023 15:34 13,3 C 13,9 C 9,4 C 84 % 1012,6 hPa 0,0 l/m 2 min 0 min 293 W/m 12,9 km/h (3 Bft) 95,74 %
21.03.2023 15:36 13,4 C 13,9 C 9,4 C 84 % 1012,6 hPa 0,0 l/m 2 min 0 min 273 W/m 12,9 km/h (3 Bft) 95,74 %
21.03.2023 15:38 13,4 C 13,9 C 9,4 C 84 % 1012,6 hPa 0,0 l/m 2 min 0 min 251 W/m 16,1 km/h (3 Bft) 93,62 %
21.03.2023 15:40 13,4 C 13,9 C 9,4 C 84 % 1012,6 hPa 0,0 l/m 2 min 0 min 250 W/m 16,1 km/h (3 Bft) 95,74 %
21.03.2023 15:42 13,4 C 14,4 C 9,4 C 84 % 1012,6 hPa 0,0 l/m 2 min 0 min 238 W/m 12,9 km/h (3 Bft) 93,62 %
21.03.2023 15:44 13,4 C 13,9 C 9,4 C 84 % 1012,5 hPa 0,0 l/m 2 min 0 min 233 W/m 16,1 km/h (3 Bft) 97,83 %
21.03.2023 15:46 13,5 C 14,4 C 9,4 C 84 % 1012,5 hPa 0,0 l/m 2 min 0 min 246 W/m 12,9 km/h (3 Bft) 95,74 %
21.03.2023 15:48 13,6 C 14,4 C 10,0 C 84 % 1012,4 hPa 0,0 l/m 2 min 0 min 301 W/m 16,1 km/h (3 Bft) 97,87 %
21.03.2023 15:50 13,6 C 15,0 C 10,0 C 83 % 1012,3 hPa 0,0 l/m 2 min 0 min 318 W/m 16,1 km/h (3 Bft) 97,87 %
21.03.2023 15:52 13,7 C 15,0 C 10,0 C 83 % 1012,3 hPa 0,0 l/m 2 min 0 min 288 W/m 22,5 km/h (4 Bft) 97,87 %
21.03.2023 15:54 13,7 C 15,0 C 10,0 C 82 % 1012,3 hPa 0,0 l/m 2 min 0 min 266 W/m 22,5 km/h (4 Bft) 97,87 %
21.03.2023 15:56 13,8 C 15,0 C 10,0 C 82 % 1012,4 hPa 0,0 l/m 2 min 0 min 248 W/m 9,7 km/h (2 Bft) 97,87 %
21.03.2023 15:58 13,8 C 14,4 C 10,0 C 81 % 1012,3 hPa 0,0 l/m 2 min 0 min 207 W/m 19,3 km/h (3 Bft) 97,83 %
21.03.2023 16:00 13,8 C 14,4 C 10,0 C 80 % 1012,3 hPa 0,0 l/m 0 min 0 min 181 W/m 19,3 km/h (3 Bft) 95,74 %
21.03.2023 16:02 13,9 C 14,4 C 10,0 C 80 % 1012,4 hPa 0,0 l/m 0 min 0 min 170 W/m 19,3 km/h (3 Bft) 95,74 %
21.03.2023 16:04 13,9 C 13,9 C 10,0 C 79 % 1012,4 hPa 0,0 l/m 0 min 0 min 147 W/m 16,1 km/h (3 Bft) 97,87 %
21.03.2023 16:06 13,9 C 13,9 C 10,0 C 79 % 1012,4 hPa 0,0 l/m 0 min 0 min 139 W/m 16,1 km/h (3 Bft) 97,87 %
21.03.2023 16:08 13,9 C 13,9 C 10,0 C 79 % 1012,3 hPa 0,0 l/m 0 min 0 min 134 W/m 16,1 km/h (3 Bft) 97,87 %
21.03.2023 16:10 13,9 C 13,9 C 9,4 C 79 % 1012,2 hPa 0,0 l/m 0 min 0 min 116 W/m 9,7 km/h (2 Bft) 97,87 %
21.03.2023 16:12 13,9 C 13,9 C 9,4 C 79 % 1012,3 hPa 0,0 l/m 0 min 0 min 121 W/m 19,3 km/h (3 Bft) 97,83 %
21.03.2023 16:14 13,9 C 13,9 C 9,4 C 78 % 1012,2 hPa 0,0 l/m 0 min 0 min 134 W/m 16,1 km/h (3 Bft) 100,00 %
21.03.2023 16:16 13,9 C 13,9 C 9,4 C 77 % 1012,3 hPa 0,0 l/m 0 min 0 min 131 W/m 22,5 km/h (4 Bft) 97,87 %
21.03.2023 16:18 13,9 C 13,9 C 9,4 C 75 % 1012,2 hPa 0,0 l/m 0 min 0 min 130 W/m 16,1 km/h (3 Bft) 97,87 %
21.03.2023 16:20 14,0 C 13,3 C 9,4 C 76 % 1012,2 hPa 0,0 l/m 0 min 0 min 120 W/m 16,1 km/h (3 Bft) 100,00 %
21.03.2023 16:22 14,1 C 13,3 C 9,4 C 78 % 1012,2 hPa 0,0 l/m 0 min 0 min 121 W/m 6,4 km/h (2 Bft) 97,87 %
21.03.2023 16:24 14,1 C 13,3 C 9,4 C 80 % 1012,2 hPa 0,0 l/m 0 min 0 min 123 W/m 19,3 km/h (3 Bft) 100,00 %
21.03.2023 16:26 14,0 C 13,3 C 9,4 C 81 % 1012,2 hPa 0,0 l/m 0 min 0 min 127 W/m 12,9 km/h (3 Bft) 100,00 %
21.03.2023 16:28 14,0 C 13,3 C 9,4 C 81 % 1012,1 hPa 0,0 l/m 0 min 0 min 147 W/m 9,7 km/h (2 Bft) 100,00 %
21.03.2023 16:30 13,9 C 13,3 C 9,4 C 81 % 1012,1 hPa 0,0 l/m 2 min 0 min 184 W/m 12,9 km/h (3 Bft) 87,23 %
21.03.2023 16:32 13,9 C 13,3 C 9,4 C 82 % 1012,1 hPa 0,0 l/m 2 min 0 min 188 W/m 12,9 km/h (3 Bft) 64,10 %
21.03.2023 16:34 13,9 C 13,3 C 9,4 C 81 % 1012,0 hPa 0,0 l/m 0 min 0 min 149 W/m 16,1 km/h (3 Bft) 100,00 %
21.03.2023 16:36 13,9 C 13,9 C 9,4 C 82 % 1012,1 hPa 0,0 l/m 0 min 0 min 126 W/m 12,9 km/h (3 Bft) 97,87 %
21.03.2023 16:38 13,9 C 13,9 C 9,4 C 82 % 1012,1 hPa 0,0 l/m 0 min 0 min 140 W/m 12,9 km/h (3 Bft) 100,00 %
21.03.2023 16:40 13,9 C 14,4 C 9,4 C 82 % 1012,0 hPa 0,0 l/m 2 min 0 min 233 W/m 16,1 km/h (3 Bft) 100,00 %
21.03.2023 16:42 13,9 C 13,9 C 9,4 C 82 % 1012,0 hPa 0,0 l/m 2 min 0 min 209 W/m 12,9 km/h (3 Bft) 100,00 %
21.03.2023 16:44 13,9 C 14,4 C 9,4 C 82 % 1012,0 hPa 0,0 l/m 2 min 0 min 208 W/m 16,1 km/h (3 Bft) 97,87 %
21.03.2023 16:46 13,8 C 14,4 C 9,4 C 81 % 1012,1 hPa 0,0 l/m 2 min 0 min 161 W/m 12,9 km/h (3 Bft) 95,74 %
21.03.2023 16:48 13,8 C 13,9 C 10,0 C 80 % 1012,0 hPa 0,0 l/m 0 min 0 min 122 W/m 25,7 km/h (4 Bft) 100,00 %
21.03.2023 16:50 13,9 C 13,9 C 10,0 C 75 % 1012,0 hPa 0,0 l/m 0 min 0 min 97 W/m 25,7 km/h (4 Bft) 100,00 %
21.03.2023 16:52 13,9 C 13,9 C 10,0 C 73 % 1012,0 hPa 0,0 l/m 0 min 0 min 83 W/m 25,7 km/h (4 Bft) 97,83 %
21.03.2023 16:54 14,0 C 13,9 C 10,0 C 72 % 1012,0 hPa 0,0 l/m 0 min 0 min 87 W/m 12,9 km/h (3 Bft) 100,00 %
21.03.2023 16:56 14,1 C 13,9 C 10,0 C 71 % 1012,1 hPa 0,0 l/m 0 min 0 min 87 W/m 16,1 km/h (3 Bft) 100,00 %
21.03.2023 16:58 14,1 C 13,9 C 10,0 C 71 % 1012,1 hPa 0,0 l/m 0 min 0 min 74 W/m 19,3 km/h (3 Bft) 100,00 %
21.03.2023 17:00 14,2 C 13,9 C 10,0 C 71 % 1012,1 hPa 0,0 l/m 0 min 0 min 63 W/m 19,3 km/h (3 Bft) 97,87 %
21.03.2023 17:02 14,2 C 13,9 C 10,0 C 70 % 1012,1 hPa 0,0 l/m 0 min 0 min 63 W/m 19,3 km/h (3 Bft) 97,87 %
21.03.2023 17:04 14,2 C 13,9 C 10,0 C 70 % 1012,2 hPa 0,0 l/m 0 min 0 min 59 W/m 22,5 km/h (4 Bft) 95,74 %
21.03.2023 17:06 14,2 C 13,9 C 10,0 C 70 % 1012,1 hPa 0,0 l/m 0 min 0 min 76 W/m 29,0 km/h (5 Bft) 100,00 %
21.03.2023 17:08 14,3 C 13,9 C 10,0 C 70 % 1012,1 hPa 0,0 l/m 0 min 0 min 90 W/m 19,3 km/h (3 Bft) 100,00 %
21.03.2023 17:10 14,3 C 13,9 C 10,0 C 70 % 1012,0 hPa 0,0 l/m 0 min 0 min 74 W/m 16,1 km/h (3 Bft) 100,00 %
21.03.2023 17:12 14,3 C 13,9 C 10,0 C 70 % 1012,1 hPa 0,0 l/m 0 min 0 min 64 W/m 19,3 km/h (3 Bft) 97,87 %
21.03.2023 17:14 14,3 C 13,9 C 10,0 C 69 % 1012,1 hPa 0,0 l/m 0 min 0 min 63 W/m 25,7 km/h (4 Bft) 95,74 %
21.03.2023 17:16 14,3 C 13,9 C 10,0 C 69 % 1012,0 hPa 0,0 l/m 0 min 0 min 51 W/m 19,3 km/h (3 Bft) 93,62 %
21.03.2023 17:18 14,3 C 13,9 C 9,4 C 69 % 1012,0 hPa 0,0 l/m 0 min 0 min 44 W/m 16,1 km/h (3 Bft) 97,87 %
21.03.2023 17:20 14,3 C 13,9 C 9,4 C 69 % 1011,9 hPa 0,0 l/m 0 min 0 min 35 W/m 16,1 km/h (3 Bft) 97,83 %
21.03.2023 17:22 14,3 C 13,9 C 9,4 C 69 % 1012,0 hPa 0,0 l/m 0 min 0 min 39 W/m 19,3 km/h (3 Bft) 97,87 %
21.03.2023 17:24 14,3 C 13,9 C 9,4 C 69 % 1011,9 hPa 0,0 l/m 0 min 0 min 57 W/m 22,5 km/h (4 Bft) 93,62 %
21.03.2023 17:26 14,3 C 13,9 C 9,4 C 69 % 1011,9 hPa 0,0 l/m 0 min 0 min 64 W/m 32,2 km/h (5 Bft) 93,62 %
21.03.2023 17:28 14,3 C 13,9 C 9,4 C 69 % 1011,8 hPa 0,0 l/m 0 min 0 min 48 W/m 22,5 km/h (4 Bft) 95,74 %
21.03.2023 17:30 14,3 C 13,9 C 9,4 C 69 % 1011,8 hPa 0,0 l/m 0 min 0 min 36 W/m 12,9 km/h (3 Bft) 95,74 %
21.03.2023 17:32 14,3 C 13,9 C 9,4 C 69 % 1011,9 hPa 0,0 l/m 0 min 0 min 33 W/m 29,0 km/h (5 Bft) 95,65 %
21.03.2023 17:34 14,3 C 13,3 C 9,4 C 70 % 1011,9 hPa 0,0 l/m 0 min 0 min 29 W/m 12,9 km/h (3 Bft) 95,74 %
21.03.2023 17:36 14,3 C 13,3 C 9,4 C 70 % 1011,9 hPa 0,0 l/m 0 min 0 min 19 W/m 25,7 km/h (4 Bft) 93,62 %
21.03.2023 17:38 14,3 C 13,3 C 9,4 C 70 % 1012,0 hPa 0,0 l/m 0 min 0 min 18 W/m 19,3 km/h (3 Bft) 95,74 %
21.03.2023 17:40 14,2 C 13,3 C 9,4 C 70 % 1012,0 hPa 0,0 l/m 0 min 0 min 17 W/m 9,7 km/h (2 Bft) 97,87 %
21.03.2023 17:42 14,2 C 13,3 C 9,4 C 70 % 1011,9 hPa 0,0 l/m 0 min 0 min 13 W/m 9,7 km/h (2 Bft) 95,74 %
21.03.2023 17:44 14,2 C 13,3 C 9,4 C 70 % 1011,9 hPa 0,0 l/m 0 min 0 min 12 W/m 25,7 km/h (4 Bft) 95,74 %
21.03.2023 17:46 14,2 C 13,3 C 9,4 C 70 % 1011,9 hPa 0,0 l/m 0 min 0 min 14 W/m 19,3 km/h (3 Bft) 95,65 %
21.03.2023 17:48 14,2 C 13,3 C 9,4 C 70 % 1012,0 hPa 0,0 l/m 0 min 0 min 19 W/m 9,7 km/h (2 Bft) 95,74 %
21.03.2023 17:50 14,2 C 13,3 C 9,4 C 70 % 1011,9 hPa 0,0 l/m 0 min 0 min 21 W/m 9,7 km/h (2 Bft) 97,87 %
21.03.2023 17:52 14,1 C 13,3 C 9,4 C 70 % 1012,0 hPa 0,0 l/m 0 min 0 min 21 W/m 12,9 km/h (3 Bft) 94,74 %
21.03.2023 17:54 14,1 C 13,3 C 9,4 C 70 % 1012,0 hPa 0,0 l/m 0 min 0 min 19 W/m 9,7 km/h (2 Bft) 97,87 %
21.03.2023 17:56 14,1 C 13,3 C 9,4 C 71 % 1012,1 hPa 0,0 l/m 0 min 0 min 18 W/m 6,4 km/h (2 Bft) 95,74 %
21.03.2023 17:58 14,1 C 13,3 C 9,4 C 71 % 1012,1 hPa 0,0 l/m 0 min 0 min 19 W/m 6,4 km/h (2 Bft) 97,87 %
21.03.2023 18:00 14,1 C 13,3 C 9,4 C 71 % 1012,1 hPa 0,0 l/m 0 min 0 min 21 W/m 6,4 km/h (2 Bft) 97,87 %
21.03.2023 18:02 14,1 C 13,3 C 9,4 C 71 % 1012,1 hPa 0,0 l/m 0 min 0 min 20 W/m 6,4 km/h (2 Bft) 97,87 %
21.03.2023 18:04 14,1 C 13,3 C 9,4 C 71 % 1012,1 hPa 0,0 l/m 0 min 0 min 23 W/m 3,2 km/h (1 Bft) 97,83 %
21.03.2023 18:07 14,1 C 13,3 C 9,4 C 71 % 1012,1 hPa 0,0 l/m 0 min 0 min 31 W/m 12,9 km/h (3 Bft) 97,59 %
21.03.2023 18:08 14,0 C 13,3 C 9,4 C 71 % 1012,1 hPa 0,0 l/m 0 min 0 min 29 W/m 6,4 km/h (2 Bft) 90,91 %
21.03.2023 18:12 14,0 C 13,3 C 9,4 C 71 % 1012,2 hPa 0,0 l/m 0 min 0 min 13 W/m 6,4 km/h (2 Bft) 98,28 %
21.03.2023 18:14 14,0 C 13,3 C 8,9 C 71 % 1012,2 hPa 0,0 l/m 0 min 0 min 10 W/m 9,7 km/h (2 Bft) 95,74 %
21.03.2023 18:16 14,0 C 12,8 C 8,9 C 72 % 1012,3 hPa 0,0 l/m 0 min 0 min 9 W/m 12,9 km/h (3 Bft) 97,87 %
21.03.2023 18:18 14,0 C 12,8 C 8,9 C 74 % 1012,2 hPa 0,0 l/m 0 min 0 min 10 W/m 6,4 km/h (2 Bft) 97,87 %
21.03.2023 18:20 14,1 C 12,8 C 8,9 C 76 % 1012,3 hPa 0,0 l/m 0 min 0 min 14 W/m 6,4 km/h (2 Bft) 95,74 %
21.03.2023 18:22 14,1 C 12,8 C 8,9 C 76 % 1012,3 hPa 0,0 l/m 0 min 0 min 13 W/m 3,2 km/h (1 Bft) 95,65 %
21.03.2023 18:24 14,1 C 12,2 C 8,9 C 76 % 1012,3 hPa 0,0 l/m 0 min 0 min 6 W/m 3,2 km/h (1 Bft) 97,87 %
21.03.2023 18:26 14,0 C 12,2 C 8,9 C 77 % 1012,3 hPa 0,0 l/m 0 min 0 min 0 W/m 3,2 km/h (1 Bft) 95,74 %
21.03.2023 18:28 14,0 C 12,2 C 8,3 C 77 % 1012,3 hPa 0,0 l/m 0 min 0 min 2 W/m 6,4 km/h (2 Bft) 97,87 %
21.03.2023 18:30 13,9 C 12,2 C 8,3 C 78 % 1012,3 hPa 0,0 l/m 0 min 0 min 0 W/m 12,9 km/h (3 Bft) 97,87 %
21.03.2023 18:32 13,9 C 12,2 C 8,3 C 78 % 1012,4 hPa 0,0 l/m 0 min 0 min 0 W/m 3,2 km/h (1 Bft) 95,74 %
21.03.2023 18:34 13,8 C 12,2 C 8,3 C 78 % 1012,6 hPa 0,0 l/m 0 min 0 min 0 W/m 19,3 km/h (3 Bft) 95,74 %
21.03.2023 18:36 13,7 C 12,2 C 8,3 C 78 % 1012,5 hPa 0,0 l/m 0 min 2 min 0 W/m 12,9 km/h (3 Bft) 96,30 %
21.03.2023 18:38 13,6 C 12,8 C 8,3 C 77 % 1012,5 hPa 0,0 l/m 0 min 2 min 0 W/m 19,3 km/h (3 Bft) 97,87 %
21.03.2023 18:40 13,6 C 12,2 C 7,8 C 77 % 1012,5 hPa 0,0 l/m 0 min 2 min 0 W/m 12,9 km/h (3 Bft) 97,87 %
21.03.2023 18:42 13,5 C 12,2 C 7,8 C 78 % 1012,5 hPa 0,0 l/m 0 min 2 min 0 W/m 12,9 km/h (3 Bft) 93,62 %
21.03.2023 18:44 13,4 C 12,2 C 7,8 C 78 % 1012,5 hPa 0,0 l/m 0 min 0 min 0 W/m 12,9 km/h (3 Bft) 95,65 %
21.03.2023 18:46 13,3 C 12,2 C 8,3 C 78 % 1012,5 hPa 0,0 l/m 0 min 0 min 0 W/m 12,9 km/h (3 Bft) 95,74 %
21.03.2023 18:48 13,3 C 12,2 C 7,8 C 79 % 1012,4 hPa 0,0 l/m 0 min 0 min 0 W/m 12,9 km/h (3 Bft) 97,87 %
21.03.2023 18:50 13,3 C 12,2 C 7,8 C 79 % 1012,4 hPa 0,0 l/m 0 min 2 min 0 W/m 9,7 km/h (2 Bft) 97,87 %
21.03.2023 18:52 13,2 C 12,2 C 7,8 C 79 % 1012,3 hPa 0,0 l/m 0 min 2 min 0 W/m 12,9 km/h (3 Bft) 95,74 %
21.03.2023 18:54 13,2 C 12,2 C 7,8 C 79 % 1012,3 hPa 0,0 l/m 0 min 2 min 0 W/m 16,1 km/h (3 Bft) 100,00 %
21.03.2023 18:56 13,2 C 12,2 C 7,8 C 80 % 1012,3 hPa 0,0 l/m 0 min 0 min 0 W/m 6,4 km/h (2 Bft) 100,00 %
21.03.2023 18:58 13,1 C 12,2 C 7,8 C 80 % 1012,3 hPa 0,0 l/m 0 min 0 min 0 W/m 3,2 km/h (1 Bft) 100,00 %
21.03.2023 19:00 13,1 C 11,7 C 7,8 C 81 % 1012,3 hPa 0,0 l/m 0 min 0 min 0 W/m 3,2 km/h (1 Bft) 100,00 %
21.03.2023 19:02 13,1 C 11,7 C 7,8 C 81 % 1012,3 hPa 0,0 l/m 0 min 0 min 0 W/m 12,9 km/h (3 Bft) 95,74 %
21.03.2023 19:04 13,0 C 11,7 C 7,8 C 81 % 1012,3 hPa 0,0 l/m 0 min 0 min 0 W/m 3,2 km/h (1 Bft) 100,00 %
21.03.2023 19:06 13,0 C 11,7 C 7,8 C 81 % 1012,3 hPa 0,0 l/m 0 min 0 min 0 W/m 6,4 km/h (2 Bft) 100,00 %
21.03.2023 19:08 12,9 C 11,7 C 7,8 C 81 % 1012,3 hPa 0,0 l/m 0 min 0 min 0 W/m 3,2 km/h (1 Bft) 100,00 %
21.03.2023 19:10 12,9 C 11,7 C 7,8 C 81 % 1012,3 hPa 0,0 l/m 0 min 0 min 0 W/m 6,4 km/h (2 Bft) 95,65 %
21.03.2023 19:12 12,9 C 11,7 C 7,8 C 82 % 1012,3 hPa 0,0 l/m 0 min 0 min 0 W/m 3,2 km/h (1 Bft) 100,00 %
21.03.2023 19:14 12,9 C 11,7 C 7,8 C 82 % 1012,3 hPa 0,0 l/m 0 min 0 min 0 W/m 12,9 km/h (3 Bft) 100,00 %
21.03.2023 19:16 12,9 C 12,2 C 8,3 C 81 % 1012,3 hPa 0,0 l/m 0 min 0 min 0 W/m 12,9 km/h (3 Bft) 95,74 %
21.03.2023 19:18 12,9 C 12,2 C 8,3 C 81 % 1012,4 hPa 0,0 l/m 0 min 0 min 0 W/m 6,4 km/h (2 Bft) 95,74 %
21.03.2023 19:20 12,9 C 12,2 C 8,3 C 81 % 1012,3 hPa 0,0 l/m 0 min 0 min 0 W/m 12,9 km/h (3 Bft) 97,87 %
21.03.2023 19:22 12,9 C 12,2 C 8,3 C 81 % 1012,3 hPa 0,0 l/m 0 min 2 min 0 W/m 12,9 km/h (3 Bft) 97,87 %
21.03.2023 19:24 12,9 C 12,2 C 8,3 C 81 % 1012,4 hPa 0,0 l/m 0 min 0 min 0 W/m 12,9 km/h (3 Bft) 100,00 %
21.03.2023 19:26 12,9 C 12,2 C 8,3 C 81 % 1012,4 hPa 0,0 l/m 0 min 0 min 0 W/m 9,7 km/h (2 Bft) 96,55 %
21.03.2023 19:28 12,9 C 12,2 C 8,3 C 81 % 1012,4 hPa 0,0 l/m 0 min 0 min 0 W/m 9,7 km/h (2 Bft) 95,74 %
21.03.2023 19:30 12,9 C 12,2 C 8,3 C 81 % 1012,3 hPa 0,0 l/m 0 min 0 min 0 W/m 9,7 km/h (2 Bft) 97,87 %
21.03.2023 19:32 12,9 C 12,2 C 8,3 C 81 % 1012,4 hPa 0,0 l/m 0 min 0 min 0 W/m 3,2 km/h (1 Bft) 97,44 %
21.03.2023 19:34 12,9 C 12,2 C 8,3 C 81 % 1012,3 hPa 0,0 l/m 0 min 0 min 0 W/m 9,7 km/h (2 Bft) 93,62 %
21.03.2023 19:36 12,9 C 12,2 C 8,3 C 81 % 1012,3 hPa 0,0 l/m 0 min 0 min 0 W/m 3,2 km/h (1 Bft) 97,92 %
21.03.2023 19:38 12,9 C 12,2 C 8,3 C 81 % 1012,3 hPa 0,0 l/m 0 min 0 min 0 W/m 6,4 km/h (2 Bft) 97,92 %
21.03.2023 19:40 12,9 C 12,2 C 8,3 C 81 % 1012,4 hPa 0,0 l/m 0 min 0 min 0 W/m 3,2 km/h (1 Bft) 97,87 %
21.03.2023 19:42 12,9 C 12,2 C 8,3 C 81 % 1012,4 hPa 0,0 l/m 0 min 0 min 0 W/m 3,2 km/h (1 Bft) 95,74 %
21.03.2023 19:44 12,9 C 12,2 C 8,3 C 81 % 1012,5 hPa 0,0 l/m 0 min 0 min 0 W/m 6,4 km/h (2 Bft) 97,14 %
21.03.2023 19:46 12,9 C 12,2 C 8,3 C 81 % 1012,4 hPa 0,0 l/m 0 min 0 min 0 W/m 6,4 km/h (2 Bft) 98,28 %
21.03.2023 19:48 12,9 C 12,2 C 8,3 C 81 % 1012,4 hPa 0,0 l/m 0 min 0 min 0 W/m 6,4 km/h (2 Bft) 100,00 %
21.03.2023 19:50 12,9 C 12,2 C 8,3 C 81 % 1012,4 hPa 0,0 l/m 0 min 0 min 0 W/m 6,4 km/h (2 Bft) 97,87 %
21.03.2023 19:52 12,9 C 12,2 C 8,3 C 81 % 1012,4 hPa 0,0 l/m 0 min 0 min 0 W/m 9,7 km/h (2 Bft) 100,00 %
21.03.2023 19:54 12,9 C 12,2 C 8,3 C 81 % 1012,5 hPa 0,0 l/m 0 min 0 min 0 W/m 9,7 km/h (2 Bft) 100,00 %
21.03.2023 19:56 12,9 C 12,2 C 8,3 C 80 % 1012,4 hPa 0,0 l/m 0 min 0 min 0 W/m 9,7 km/h (2 Bft) 100,00 %
21.03.2023 19:58 12,9 C 12,2 C 8,3 C 80 % 1012,4 hPa 0,0 l/m 0 min 0 min 0 W/m 6,4 km/h (2 Bft) 100,00 %
21.03.2023 20:00 12,9 C 12,2 C 8,3 C 81 % 1012,4 hPa 0,0 l/m 0 min 0 min 0 W/m 3,2 km/h (1 Bft) 98,28 %
21.03.2023 20:02 12,9 C 12,2 C 8,3 C 80 % 1012,4 hPa 0,0 l/m 0 min 0 min 0 W/m 3,2 km/h (1 Bft) 100,00 %
21.03.2023 20:04 12,9 C 12,2 C 7,8 C 81 % 1012,4 hPa 0,0 l/m 0 min 0 min 0 W/m 3,2 km/h (1 Bft) 100,00 %
21.03.2023 20:06 12,8 C 11,7 C 7,8 C 81 % 1012,4 hPa 0,0 l/m 0 min 0 min 0 W/m 0,0 km/h (0 Bft) 97,83 %
21.03.2023 20:08 12,8 C 11,7 C 7,8 C 81 % 1012,4 hPa 0,0 l/m 0 min 0 min 0 W/m 3,2 km/h (1 Bft) 97,96 %
21.03.2023 20:10 12,8 C 11,7 C 7,8 C 81 % 1012,4 hPa 0,0 l/m 0 min 0 min 0 W/m 0,0 km/h (0 Bft) 97,83 %
21.03.2023 20:12 12,8 C 11,7 C 7,8 C 81 % 1012,4 hPa 0,0 l/m 0 min 0 min 0 W/m 0,0 km/h (0 Bft) 95,74 %
21.03.2023 20:14 12,8 C 11,7 C 7,8 C 81 % 1012,4 hPa 0,0 l/m 0 min 0 min 0 W/m 3,2 km/h (1 Bft) 95,74 %
21.03.2023 20:16 12,8 C 11,7 C 7,8 C 81 % 1012,4 hPa 0,0 l/m 0 min 0 min 0 W/m 0,0 km/h (0 Bft) 95,74 %
21.03.2023 20:18 12,8 C 11,7 C 7,8 C 81 % 1012,3 hPa 0,0 l/m 0 min 0 min 0 W/m 3,2 km/h (1 Bft) 97,87 %
21.03.2023 20:20 12,8 C 11,7 C 7,8 C 81 % 1012,2 hPa 0,0 l/m 0 min 0 min 0 W/m 3,2 km/h (1 Bft) 97,87 %
21.03.2023 20:22 12,8 C 11,7 C 7,8 C 81 % 1012,2 hPa 0,0 l/m 0 min 0 min 0 W/m 0,0 km/h (0 Bft) 95,65 %
21.03.2023 20:24 12,7 C 11,7 C 7,8 C 81 % 1012,3 hPa 0,0 l/m 0 min 0 min 0 W/m 6,4 km/h (2 Bft) 97,87 %
21.03.2023 20:26 12,7 C 11,7 C 7,8 C 81 % 1012,3 hPa 0,0 l/m 0 min 0 min 0 W/m 0,0 km/h (0 Bft) 97,87 %
21.03.2023 20:28 12,7 C 11,7 C 7,8 C 82 % 1012,2 hPa 0,0 l/m 0 min 0 min 0 W/m 3,2 km/h (1 Bft) 97,87 %
21.03.2023 20:30 12,7 C 11,7 C 7,8 C 82 % 1012,2 hPa 0,0 l/m 0 min 0 min 0 W/m 3,2 km/h (1 Bft) 97,87 %
21.03.2023 20:32 12,7 C 11,7 C 7,8 C 82 % 1012,2 hPa 0,0 l/m 0 min 0 min 0 W/m 6,4 km/h (2 Bft) 95,74 %
21.03.2023 20:34 12,7 C 11,7 C 7,8 C 82 % 1012,2 hPa 0,0 l/m 0 min 0 min 0 W/m 6,4 km/h (2 Bft) 95,74 %
21.03.2023 20:36 12,7 C 11,7 C 7,8 C 82 % 1012,2 hPa 0,0 l/m 0 min 0 min 0 W/m 12,9 km/h (3 Bft) 97,87 %
21.03.2023 20:38 12,7 C 11,7 C 7,8 C 82 % 1012,1 hPa 0,0 l/m 0 min 0 min 0 W/m 6,4 km/h (2 Bft) 95,65 %
21.03.2023 20:40 12,6 C 11,7 C 7,8 C 82 % 1012,1 hPa 0,0 l/m 0 min 0 min 0 W/m 9,7 km/h (2 Bft) 97,87 %
21.03.2023 20:42 12,6 C 11,7 C 7,8 C 82 % 1012,1 hPa 0,0 l/m 0 min 0 min 0 W/m 6,4 km/h (2 Bft) 95,83 %
21.03.2023 20:44 12,6 C 11,7 C 7,8 C 82 % 1012,1 hPa 0,0 l/m 0 min 0 min 0 W/m 9,7 km/h (2 Bft) 97,87 %
21.03.2023 20:46 12,6 C 11,7 C 7,8 C 82 % 1012,0 hPa 0,0 l/m 0 min 0 min 0 W/m 3,2 km/h (1 Bft) 97,96 %
21.03.2023 20:48 12,6 C 11,7 C 7,8 C 82 % 1012,0 hPa 0,0 l/m 0 min 0 min 0 W/m 3,2 km/h (1 Bft) 97,87 %
21.03.2023 20:50 12,6 C 11,7 C 7,8 C 82 % 1012,0 hPa 0,0 l/m 0 min 0 min 0 W/m 0,0 km/h (0 Bft) 100,00 %
21.03.2023 20:52 12,6 C 11,7 C 7,8 C 82 % 1012,1 hPa 0,0 l/m 0 min 0 min 0 W/m 0,0 km/h (0 Bft) 100,00 %
21.03.2023 20:54 12,6 C 11,7 C 7,2 C 82 % 1012,1 hPa 0,0 l/m 0 min 0 min 0 W/m 0,0 km/h (0 Bft) 98,31 %
21.03.2023 20:56 12,6 C 11,1 C 7,2 C 82 % 1012,1 hPa 0,0 l/m 0 min 0 min 0 W/m 3,2 km/h (1 Bft) 100,00 %
21.03.2023 20:58 12,6 C 11,1 C 7,2 C 82 % 1012,1 hPa 0,0 l/m 0 min 0 min 0 W/m 3,2 km/h (1 Bft) 97,87 %
21.03.2023 21:00 12,5 C 11,1 C 7,2 C 82 % 1012,1 hPa 0,0 l/m 0 min 0 min 0 W/m 0,0 km/h (0 Bft) 97,87 %
21.03.2023 21:02 12,5 C 11,1 C 7,2 C 82 % 1012,1 hPa 0,0 l/m 0 min 0 min 0 W/m 3,2 km/h (1 Bft) 97,87 %
21.03.2023 21:04 12,4 C 11,1 C 7,2 C 82 % 1012,1 hPa 0,0 l/m 0 min 0 min 0 W/m 3,2 km/h (1 Bft) 97,83 %
21.03.2023 21:06 12,4 C 11,1 C 7,2 C 82 % 1012,1 hPa 0,0 l/m 0 min 0 min 0 W/m 3,2 km/h (1 Bft) 98,31 %
21.03.2023 21:08 12,3 C 11,1 C 7,2 C 83 % 1012,1 hPa 0,0 l/m 0 min 0 min 0 W/m 0,0 km/h (0 Bft) 94,29 %
21.03.2023 21:10 12,3 C 10,6 C 6,7 C 83 % 1012,1 hPa 0,0 l/m 0 min 0 min 0 W/m 3,2 km/h (1 Bft) 95,74 %
21.03.2023 21:12 12,3 C 11,1 C 6,7 C 83 % 1012,1 hPa 0,0 l/m 0 min 0 min 0 W/m 3,2 km/h (1 Bft) 95,74 %
21.03.2023 21:14 12,2 C 10,6 C 6,7 C 83 % 1012,1 hPa 0,0 l/m 0 min 0 min 0 W/m 3,2 km/h (1 Bft) 95,83 %
21.03.2023 21:16 12,2 C 10,6 C 6,7 C 83 % 1012,1 hPa 0,0 l/m 0 min 0 min 0 W/m 3,2 km/h (1 Bft) 93,62 %
21.03.2023 21:18 12,2 C 10,6 C 6,7 C 83 % 1012,0 hPa 0,0 l/m 0 min 0 min 0 W/m 3,2 km/h (1 Bft) 95,65 %
21.03.2023 21:20 12,1 C 10,6 C 6,7 C 83 % 1012,0 hPa 0,0 l/m 0 min 0 min 0 W/m 3,2 km/h (1 Bft) 95,83 %
21.03.2023 21:22 12,1 C 10,6 C 6,7 C 83 % 1012,0 hPa 0,0 l/m 0 min 0 min 0 W/m 6,4 km/h (2 Bft) 93,62 %
21.03.2023 21:24 12,1 C 10,6 C 6,7 C 83 % 1011,9 hPa 0,0 l/m 0 min 0 min 0 W/m 3,2 km/h (1 Bft) 95,74 %
21.03.2023 21:26 12,0 C 10,6 C 6,7 C 83 % 1012,0 hPa 0,0 l/m 0 min 0 min 0 W/m 3,2 km/h (1 Bft) 95,74 %
21.03.2023 21:28 12,0 C 10,6 C 7,2 C 83 % 1011,9 hPa 0,0 l/m 0 min 0 min 0 W/m 3,2 km/h (1 Bft) 97,96 %
21.03.2023 21:30 11,9 C 10,6 C 7,2 C 83 % 1011,9 hPa 0,0 l/m 0 min 0 min 0 W/m 6,4 km/h (2 Bft) 95,65 %
21.03.2023 21:32 11,9 C 10,6 C 7,2 C 83 % 1011,8 hPa 0,0 l/m 0 min 0 min 0 W/m 3,2 km/h (1 Bft) 93,62 %
21.03.2023 21:34 11,9 C 10,6 C 7,2 C 84 % 1011,8 hPa 0,0 l/m 0 min 0 min 0 W/m 6,4 km/h (2 Bft) 95,83 %
21.03.2023 21:36 11,9 C 10,6 C 7,2 C 84 % 1011,9 hPa 0,0 l/m 0 min 0 min 0 W/m 3,2 km/h (1 Bft) 95,74 %
21.03.2023 21:38 11,8 C 10,6 C 7,2 C 84 % 1011,9 hPa 0,0 l/m 0 min 0 min 0 W/m 3,2 km/h (1 Bft) 95,74 %
21.03.2023 21:40 11,8 C 10,6 C 7,2 C 84 % 1011,9 hPa 0,0 l/m 0 min 0 min 0 W/m 0,0 km/h (0 Bft) 97,87 %
21.03.2023 21:42 11,8 C 10,6 C 7,2 C 84 % 1012,0 hPa 0,0 l/m 0 min 0 min 0 W/m 3,2 km/h (1 Bft) 97,92 %
21.03.2023 21:44 11,8 C 10,6 C 7,2 C 84 % 1011,9 hPa 0,0 l/m 0 min 0 min 0 W/m 3,2 km/h (1 Bft) 97,83 %
21.03.2023 21:46 11,8 C 10,6 C 7,2 C 84 % 1012,0 hPa 0,0 l/m 0 min 0 min 0 W/m 3,2 km/h (1 Bft) 97,87 %
21.03.2023 21:48 11,8 C 10,6 C 7,2 C 84 % 1011,9 hPa 0,0 l/m 0 min 0 min 0 W/m 3,2 km/h (1 Bft) 95,74 %
21.03.2023 21:50 11,8 C 10,6 C 7,2 C 84 % 1011,9 hPa 0,0 l/m 0 min 0 min 0 W/m 6,4 km/h (2 Bft) 97,87 %
21.03.2023 21:52 11,7 C 10,6 C 7,2 C 84 % 1011,9 hPa 0,0 l/m 0 min 0 min 0 W/m 9,7 km/h (2 Bft) 93,62 %
21.03.2023 21:54 11,7 C 10,6 C 7,2 C 85 % 1011,9 hPa 0,0 l/m 0 min 0 min 0 W/m 6,4 km/h (2 Bft) 97,87 %
21.03.2023 21:56 11,7 C 10,6 C 7,2 C 85 % 1011,9 hPa 0,0 l/m 0 min 0 min 0 W/m 6,4 km/h (2 Bft) 100,00 %
21.03.2023 21:58 11,7 C 10,6 C 7,2 C 85 % 1011,9 hPa 0,0 l/m 0 min 0 min 0 W/m 3,2 km/h (1 Bft) 100,00 %
21.03.2023 22:00 11,7 C 10,6 C 7,2 C 85 % 1011,8 hPa 0,0 l/m 0 min 0 min 0 W/m 6,4 km/h (2 Bft) 100,00 %
21.03.2023 22:02 11,7 C 10,6 C 7,2 C 85 % 1011,9 hPa 0,0 l/m 0 min 0 min 0 W/m 3,2 km/h (1 Bft) 93,62 %
21.03.2023 22:04 11,6 C 10,6 C 7,2 C 85 % 1011,9 hPa 0,0 l/m 0 min 0 min 0 W/m 6,4 km/h (2 Bft) 95,74 %
21.03.2023 22:06 11,6 C 10,6 C 6,7 C 85 % 1011,9 hPa 0,0 l/m 0 min 0 min 0 W/m 6,4 km/h (2 Bft) 100,00 %
21.03.2023 22:08 11,6 C 10,6 C 6,7 C 85 % 1011,9 hPa 0,0 l/m 0 min 0 min 0 W/m 6,4 km/h (2 Bft) 100,00 %
21.03.2023 22:10 11,6 C 10,6 C 6,7 C 85 % 1011,9 hPa 0,0 l/m 0 min 0 min 0 W/m 6,4 km/h (2 Bft) 100,00 %
21.03.2023 22:12 11,6 C 10,6 C 6,7 C 86 % 1012,0 hPa 0,0 l/m 0 min 0 min 0 W/m 3,2 km/h (1 Bft) 100,00 %
21.03.2023 22:14 11,6 C 10,6 C 6,7 C 86 % 1011,9 hPa 0,0 l/m 0 min 0 min 0 W/m 6,4 km/h (2 Bft) 100,00 %
21.03.2023 22:16 11,6 C 10,6 C 6,7 C 86 % 1011,9 hPa 0,0 l/m 0 min 0 min 0 W/m 3,2 km/h (1 Bft) 100,00 %
21.03.2023 22:18 11,6 C 10,6 C 6,7 C 86 % 1011,9 hPa 0,0 l/m 0 min 0 min 0 W/m 0,0 km/h (0 Bft) 100,00 %
21.03.2023 22:20 11,5 C 10,6 C 6,7 C 86 % 1011,9 hPa 0,0 l/m 0 min 0 min 0 W/m 6,4 km/h (2 Bft) 100,00 %
21.03.2023 22:22 11,5 C 10,6 C 7,2 C 86 % 1011,9 hPa 0,0 l/m 0 min 0 min 0 W/m 6,4 km/h (2 Bft) 100,00 %
21.03.2023 22:24 11,5 C 10,6 C 7,2 C 86 % 1012,0 hPa 0,0 l/m 0 min 0 min 0 W/m 3,2 km/h (1 Bft) 97,83 %
21.03.2023 22:26 11,5 C 10,6 C 7,2 C 86 % 1011,9 hPa 0,0 l/m 0 min 0 min 0 W/m 3,2 km/h (1 Bft) 97,87 %
21.03.2023 22:28 11,5 C 10,6 C 7,2 C 86 % 1012,0 hPa 0,0 l/m 0 min 0 min 0 W/m 9,7 km/h (2 Bft) 100,00 %
21.03.2023 22:30 11,5 C 10,6 C 7,2 C 86 % 1012,0 hPa 0,0 l/m 0 min 0 min 0 W/m 12,9 km/h (3 Bft) 97,87 %
21.03.2023 22:32 11,5 C 10,6 C 7,2 C 86 % 1012,0 hPa 0,0 l/m 0 min 0 min 0 W/m 3,2 km/h (1 Bft) 100,00 %
21.03.2023 22:34 11,5 C 10,6 C 7,2 C 86 % 1011,9 hPa 0,0 l/m 0 min 0 min 0 W/m 3,2 km/h (1 Bft) 100,00 %
21.03.2023 22:36 11,5 C 11,1 C 7,2 C 86 % 1011,9 hPa 0,0 l/m 0 min 0 min 0 W/m 6,4 km/h (2 Bft) 97,83 %
21.03.2023 22:38 11,5 C 11,1 C 7,2 C 86 % 1011,9 hPa 0,0 l/m 0 min 0 min 0 W/m 16,1 km/h (3 Bft) 97,96 %
21.03.2023 22:40 11,6 C 11,1 C 7,2 C 86 % 1011,9 hPa 0,0 l/m 0 min 0 min 0 W/m 16,1 km/h (3 Bft) 97,87 %
21.03.2023 22:42 11,6 C 11,1 C 7,2 C 86 % 1011,9 hPa 0,0 l/m 0 min 0 min 0 W/m 12,9 km/h (3 Bft) 97,87 %
21.03.2023 22:44 11,6 C 11,1 C 7,2 C 86 % 1011,8 hPa 0,0 l/m 0 min 0 min 0 W/m 12,9 km/h (3 Bft) 97,87 %
21.03.2023 22:46 11,6 C 11,1 C 7,2 C 86 % 1011,9 hPa 0,0 l/m 0 min 0 min 0 W/m 19,3 km/h (3 Bft) 95,74 %
21.03.2023 22:48 11,6 C 11,1 C 7,2 C 85 % 1011,9 hPa 0,0 l/m 0 min 0 min 0 W/m 9,7 km/h (2 Bft) 97,87 %
21.03.2023 22:50 11,7 C 11,1 C 7,2 C 85 % 1011,8 hPa 0,0 l/m 0 min 0 min 0 W/m 16,1 km/h (3 Bft) 97,83 %
21.03.2023 22:52 11,7 C 11,1 C 7,2 C 85 % 1011,8 hPa 0,0 l/m 0 min 0 min 0 W/m 12,9 km/h (3 Bft) 83,33 %
21.03.2023 22:54 11,7 C 11,1 C 7,2 C 85 % 1011,8 hPa 0,0 l/m 0 min 0 min 0 W/m 16,1 km/h (3 Bft) 98,63 %
21.03.2023 22:56 11,7 C 11,1 C 7,2 C 85 % 1011,8 hPa 0,0 l/m 0 min 0 min 0 W/m 16,1 km/h (3 Bft) 97,87 %
21.03.2023 22:58 11,7 C 11,1 C 7,2 C 85 % 1011,8 hPa 0,0 l/m 0 min 0 min 0 W/m 12,9 km/h (3 Bft) 95,74 %
21.03.2023 23:00 11,7 C 11,1 C 7,2 C 85 % 1011,8 hPa 0,0 l/m 0 min 0 min 0 W/m 12,9 km/h (3 Bft) 93,62 %
21.03.2023 23:02 11,7 C 11,1 C 7,2 C 84 % 1011,7 hPa 0,0 l/m 0 min 0 min 0 W/m 19,3 km/h (3 Bft) 93,62 %
21.03.2023 23:04 11,7 C 11,1 C 7,2 C 84 % 1011,7 hPa 0,0 l/m 0 min 0 min 0 W/m 12,9 km/h (3 Bft) 95,83 %
21.03.2023 23:06 11,7 C 11,1 C 7,2 C 84 % 1011,7 hPa 0,0 l/m 0 min 0 min 0 W/m 12,9 km/h (3 Bft) 95,65 %
21.03.2023 23:08 11,7 C 11,1 C 7,2 C 84 % 1011,7 hPa 0,0 l/m 0 min 0 min 0 W/m 12,9 km/h (3 Bft) 93,62 %
21.03.2023 23:10 11,7 C 11,1 C 7,2 C 84 % 1011,7 hPa 0,0 l/m 0 min 0 min 0 W/m 12,9 km/h (3 Bft) 95,74 %
21.03.2023 23:12 11,7 C 11,1 C 7,2 C 84 % 1011,7 hPa 0,0 l/m 0 min 0 min 0 W/m 12,9 km/h (3 Bft) 91,49 %
21.03.2023 23:14 11,7 C 11,1 C 7,2 C 84 % 1011,7 hPa 0,0 l/m 0 min 0 min 0 W/m 12,9 km/h (3 Bft) 95,74 %
21.03.2023 23:16 11,7 C 11,1 C 7,2 C 84 % 1011,8 hPa 0,0 l/m 0 min 0 min 0 W/m 12,9 km/h (3 Bft) 95,74 %
21.03.2023 23:18 11,7 C 11,1 C 7,2 C 84 % 1011,8 hPa 0,0 l/m 0 min 0 min 0 W/m 12,9 km/h (3 Bft) 95,74 %
21.03.2023 23:20 11,7 C 11,1 C 7,2 C 84 % 1011,8 hPa 0,0 l/m 0 min 0 min 0 W/m 9,7 km/h (2 Bft) 91,30 %
21.03.2023 23:22 11,7 C 10,6 C 7,2 C 84 % 1011,7 hPa 0,0 l/m 0 min 0 min 0 W/m 16,1 km/h (3 Bft) 97,87 %
21.03.2023 23:24 11,7 C 10,6 C 7,2 C 84 % 1011,8 hPa 0,0 l/m 0 min 0 min 0 W/m 16,1 km/h (3 Bft) 97,87 %
21.03.2023 23:26 11,7 C 10,6 C 7,2 C 84 % 1011,8 hPa 0,0 l/m 0 min 0 min 0 W/m 12,9 km/h (3 Bft) 97,92 %
21.03.2023 23:28 11,7 C 10,6 C 7,2 C 84 % 1011,7 hPa 0,0 l/m 0 min 0 min 0 W/m 9,7 km/h (2 Bft) 95,74 %
21.03.2023 23:30 11,6 C 10,6 C 7,2 C 84 % 1011,8 hPa 0,0 l/m 0 min 0 min 0 W/m 9,7 km/h (2 Bft) 95,74 %
21.03.2023 23:32 11,6 C 10,6 C 7,2 C 84 % 1011,7 hPa 0,0 l/m 0 min 0 min 0 W/m 9,7 km/h (2 Bft) 100,00 %
21.03.2023 23:34 11,6 C 10,6 C 7,2 C 84 % 1011,8 hPa 0,0 l/m 0 min 0 min 0 W/m 12,9 km/h (3 Bft) 100,00 %
21.03.2023 23:36 11,6 C 10,6 C 7,2 C 84 % 1011,8 hPa 0,0 l/m 0 min 0 min 0 W/m 9,7 km/h (2 Bft) 100,00 %
21.03.2023 23:38 11,6 C 10,6 C 7,2 C 84 % 1011,8 hPa 0,0 l/m 0 min 0 min 0 W/m 9,7 km/h (2 Bft) 100,00 %
21.03.2023 23:40 11,6 C 10,6 C 6,7 C 84 % 1011,7 hPa 0,0 l/m 0 min 0 min 0 W/m 3,2 km/h (1 Bft) 97,87 %
21.03.2023 23:42 11,6 C 10,6 C 6,7 C 84 % 1011,8 hPa 0,0 l/m 0 min 0 min 0 W/m 6,4 km/h (2 Bft) 100,00 %
21.03.2023 23:44 11,5 C 10,6 C 6,7 C 84 % 1011,8 hPa 0,0 l/m 0 min 0 min 0 W/m 6,4 km/h (2 Bft) 100,00 %
21.03.2023 23:46 11,5 C 10,6 C 6,7 C 84 % 1011,8 hPa 0,0 l/m 0 min 0 min 0 W/m 6,4 km/h (2 Bft) 95,65 %
21.03.2023 23:48 11,4 C 10,0 C 6,7 C 84 % 1011,7 hPa 0,0 l/m 0 min 0 min 0 W/m 3,2 km/h (1 Bft) 100,00 %
21.03.2023 23:50 11,4 C 10,0 C 6,7 C 84 % 1011,7 hPa 0,0 l/m 0 min 0 min 0 W/m 3,2 km/h (1 Bft) 97,87 %
21.03.2023 23:52 11,4 C 10,0 C 6,7 C 84 % 1011,8 hPa 0,0 l/m 0 min 0 min 0 W/m 6,4 km/h (2 Bft) 97,92 %
21.03.2023 23:54 11,4 C 10,0 C 6,7 C 84 % 1011,8 hPa 0,0 l/m 0 min 0 min 0 W/m 6,4 km/h (2 Bft) 57,45 %
21.03.2023 23:56 11,3 C 10,0 C 6,7 C 85 % 1011,8 hPa 0,0 l/m 0 min 0 min 0 W/m 3,2 km/h (1 Bft) 100,00 %
21.03.2023 23:58 11,3 C 10,0 C 6,7 C 85 % 1011,7 hPa 0,0 l/m 0 min 0 min 0 W/m 3,2 km/h (1 Bft) 100,00 %
_ Min-Zeit 06:54 06:12 06:24 17:14 23:02 - - - - 00:24 13:18
Minimum _ 8,8 C 7,8 C 3,9 C 69 % 1011,7 hPa - - - - 0,0 km/h (0 Bft) 4,76 %
_ Max-Zeit 17:08 15:50 15:48 10:56 00:00 06:12 13:36 06:12 14:24 12:28 00:02
Maximum _ 14,3 C 15,0 C 10,0 C 95 % 1018,2 hPa 0,2 l/m 2 min 4 min 457 W/m 38,6 km/h
S-SO (5 Bft)
100,00 %
Durchschnitt _ 11,2 C 10,6 C 6,6 C 86 % 1014,3 hPa #1,4 l/m #2:04 h #2:46 h 146 W/m 10,6 km/h (2 Bft) 97,04 %
© 2023 W. Hausmann